<?xml version="1.0" encoding="UTF-8" standalone="no" ?>
<gpx xmlns="http://www.topografix.com/GPX/1/1" xmlns:xsi="http://www.w3.org/2001/XMLSchema-instance" xsi:schemaLocation="http://www.topografix.com/GPX/1/1 http://www.topografix.com/GPX/1/1/gpx.xsd" version="1.1" creator="VisuGPX - https://www.visugpx.com">
  <metadata>
    <name>rando VTT bois de opio, valbonne et le rouret</name>
    <desc><![CDATA[Rando niveau débutant sauf la descente depuis l\'émetteur du rouret (le camps romain).]]></desc>
  </metadata>
  <trk>
    <name><![CDATA[Rouret Albin]]></name>
    <trkseg>
      <trkpt lat="43.67482" lon="7.00554">
        <ele>316.4110107</ele>
        <time>2012-05-17T06:58:25Z</time>
      </trkpt>
      <trkpt lat="43.67482" lon="7.00557">
        <ele>316.8917236</ele>
        <time>2012-05-17T06:59:06Z</time>
      </trkpt>
      <trkpt lat="43.67484" lon="7.00559">
        <ele>317.3724365</ele>
        <time>2012-05-17T06:59:11Z</time>
      </trkpt>
      <trkpt lat="43.67492" lon="7.00569">
        <ele>316.8917236</ele>
        <time>2012-05-17T06:59:18Z</time>
      </trkpt>
      <trkpt lat="43.67486" lon="7.00604">
        <ele>313.5272217</ele>
        <time>2012-05-17T06:59:28Z</time>
      </trkpt>
      <trkpt lat="43.67471" lon="7.00625">
        <ele>311.6044922</ele>
        <time>2012-05-17T06:59:34Z</time>
      </trkpt>
      <trkpt lat="43.6745" lon="7.00619">
        <ele>310.6430664</ele>
        <time>2012-05-17T06:59:40Z</time>
      </trkpt>
      <trkpt lat="43.67435" lon="7.00576">
        <ele>309.6818848</ele>
        <time>2012-05-17T06:59:51Z</time>
      </trkpt>
      <trkpt lat="43.6743" lon="7.00567">
        <ele>311.6044922</ele>
        <time>2012-05-17T07:00:49Z</time>
      </trkpt>
      <trkpt lat="43.67394" lon="7.00537">
        <ele>310.1624756</ele>
        <time>2012-05-17T07:00:59Z</time>
      </trkpt>
      <trkpt lat="43.67332" lon="7.00496">
        <ele>309.6818848</ele>
        <time>2012-05-17T07:01:18Z</time>
      </trkpt>
      <trkpt lat="43.67284" lon="7.00484">
        <ele>312.0852051</ele>
        <time>2012-05-17T07:01:35Z</time>
      </trkpt>
      <trkpt lat="43.67246" lon="7.0049">
        <ele>312.5657959</ele>
        <time>2012-05-17T07:01:49Z</time>
      </trkpt>
      <trkpt lat="43.67207" lon="7.00484">
        <ele>314.0078125</ele>
        <time>2012-05-17T07:02:02Z</time>
      </trkpt>
      <trkpt lat="43.67173" lon="7.00522">
        <ele>315.4498291</ele>
        <time>2012-05-17T07:02:17Z</time>
      </trkpt>
      <trkpt lat="43.67136" lon="7.00567">
        <ele>319.7756348</ele>
        <time>2012-05-17T07:02:39Z</time>
      </trkpt>
      <trkpt lat="43.67126" lon="7.00567">
        <ele>321.2177734</ele>
        <time>2012-05-17T07:02:46Z</time>
      </trkpt>
      <trkpt lat="43.67108" lon="7.00537">
        <ele>322.1789551</ele>
        <time>2012-05-17T07:03:03Z</time>
      </trkpt>
      <trkpt lat="43.67095" lon="7.00526">
        <ele>322.1789551</ele>
        <time>2012-05-17T07:03:13Z</time>
      </trkpt>
      <trkpt lat="43.67087" lon="7.00524">
        <ele>322.1789551</ele>
        <time>2012-05-17T07:03:17Z</time>
      </trkpt>
      <trkpt lat="43.67085" lon="7.00524">
        <ele>322.659668</ele>
        <time>2012-05-17T07:03:19Z</time>
      </trkpt>
      <trkpt lat="43.6707" lon="7.00567">
        <ele>323.1403809</ele>
        <time>2012-05-17T07:03:35Z</time>
      </trkpt>
      <trkpt lat="43.67076" lon="7.00606">
        <ele>322.659668</ele>
        <time>2012-05-17T07:03:45Z</time>
      </trkpt>
      <trkpt lat="43.67104" lon="7.00694">
        <ele>323.1403809</ele>
        <time>2012-05-17T07:04:04Z</time>
      </trkpt>
      <trkpt lat="43.67104" lon="7.00782">
        <ele>325.0629883</ele>
        <time>2012-05-17T07:04:23Z</time>
      </trkpt>
      <trkpt lat="43.67102" lon="7.00883">
        <ele>326.0241699</ele>
        <time>2012-05-17T07:04:43Z</time>
      </trkpt>
      <trkpt lat="43.6708" lon="7.00938">
        <ele>325.5435791</ele>
        <time>2012-05-17T07:04:57Z</time>
      </trkpt>
      <trkpt lat="43.67059" lon="7.01029">
        <ele>320.7370605</ele>
        <time>2012-05-17T07:05:14Z</time>
      </trkpt>
      <trkpt lat="43.6705" lon="7.01056">
        <ele>320.2563477</ele>
        <time>2012-05-17T07:05:19Z</time>
      </trkpt>
      <trkpt lat="43.6704" lon="7.01065">
        <ele>320.2563477</ele>
        <time>2012-05-17T07:05:22Z</time>
      </trkpt>
      <trkpt lat="43.6698" lon="7.01095">
        <ele>319.7756348</ele>
        <time>2012-05-17T07:05:38Z</time>
      </trkpt>
      <trkpt lat="43.66898" lon="7.01136">
        <ele>320.7370605</ele>
        <time>2012-05-17T07:06:00Z</time>
      </trkpt>
      <trkpt lat="43.66844" lon="7.01144">
        <ele>320.7370605</ele>
        <time>2012-05-17T07:06:11Z</time>
      </trkpt>
      <trkpt lat="43.66834" lon="7.01132">
        <ele>320.2563477</ele>
        <time>2012-05-17T07:06:17Z</time>
      </trkpt>
      <trkpt lat="43.66827" lon="7.01117">
        <ele>316.8917236</ele>
        <time>2012-05-17T07:06:36Z</time>
      </trkpt>
      <trkpt lat="43.66791" lon="7.01097">
        <ele>319.2950439</ele>
        <time>2012-05-17T07:08:34Z</time>
      </trkpt>
      <trkpt lat="43.66791" lon="7.01095">
        <ele>318.8143311</ele>
        <time>2012-05-17T07:08:36Z</time>
      </trkpt>
      <trkpt lat="43.66799" lon="7.01044">
        <ele>315.9304199</ele>
        <time>2012-05-17T07:08:58Z</time>
      </trkpt>
      <trkpt lat="43.66804" lon="7.01003">
        <ele>314.0078125</ele>
        <time>2012-05-17T07:09:20Z</time>
      </trkpt>
      <trkpt lat="43.66802" lon="7.00973">
        <ele>307.7592773</ele>
        <time>2012-05-17T07:09:40Z</time>
      </trkpt>
      <trkpt lat="43.66793" lon="7.00938">
        <ele>312.5657959</ele>
        <time>2012-05-17T07:10:39Z</time>
      </trkpt>
      <trkpt lat="43.66782" lon="7.00936">
        <ele>312.0852051</ele>
        <time>2012-05-17T07:10:42Z</time>
      </trkpt>
      <trkpt lat="43.66774" lon="7.00938">
        <ele>311.1237793</ele>
        <time>2012-05-17T07:10:45Z</time>
      </trkpt>
      <trkpt lat="43.66733" lon="7.00947">
        <ele>306.7978516</ele>
        <time>2012-05-17T07:11:00Z</time>
      </trkpt>
      <trkpt lat="43.66666" lon="7.00977">
        <ele>301.991333</ele>
        <time>2012-05-17T07:11:25Z</time>
      </trkpt>
      <trkpt lat="43.66634" lon="7.01001">
        <ele>297.1846924</ele>
        <time>2012-05-17T07:11:42Z</time>
      </trkpt>
      <trkpt lat="43.66602" lon="7.01029">
        <ele>290.4555664</ele>
        <time>2012-05-17T07:12:02Z</time>
      </trkpt>
      <trkpt lat="43.66591" lon="7.01059">
        <ele>280.8424072</ele>
        <time>2012-05-17T07:12:19Z</time>
      </trkpt>
      <trkpt lat="43.66585" lon="7.01067">
        <ele>276.5163574</ele>
        <time>2012-05-17T07:12:51Z</time>
      </trkpt>
      <trkpt lat="43.66576" lon="7.01076">
        <ele>272.6711426</ele>
        <time>2012-05-17T07:13:44Z</time>
      </trkpt>
      <trkpt lat="43.6655" lon="7.01093">
        <ele>271.7097168</ele>
        <time>2012-05-17T07:13:55Z</time>
      </trkpt>
      <trkpt lat="43.66544" lon="7.01095">
        <ele>271.7097168</ele>
        <time>2012-05-17T07:13:57Z</time>
      </trkpt>
      <trkpt lat="43.66546" lon="7.01114">
        <ele>269.7871094</ele>
        <time>2012-05-17T07:14:05Z</time>
      </trkpt>
      <trkpt lat="43.66538" lon="7.01119">
        <ele>269.3065186</ele>
        <time>2012-05-17T07:14:10Z</time>
      </trkpt>
      <trkpt lat="43.66495" lon="7.01114">
        <ele>270.2677002</ele>
        <time>2012-05-17T07:14:30Z</time>
      </trkpt>
      <trkpt lat="43.66493" lon="7.01112">
        <ele>270.2677002</ele>
        <time>2012-05-17T07:14:32Z</time>
      </trkpt>
      <trkpt lat="43.6649" lon="7.01106">
        <ele>269.7871094</ele>
        <time>2012-05-17T07:14:47Z</time>
      </trkpt>
      <trkpt lat="43.6649" lon="7.01102">
        <ele>268.3450928</ele>
        <time>2012-05-17T07:14:54Z</time>
      </trkpt>
      <trkpt lat="43.6649" lon="7.01104">
        <ele>268.3450928</ele>
        <time>2012-05-17T07:14:57Z</time>
      </trkpt>
      <trkpt lat="43.66482" lon="7.01119">
        <ele>266.4224854</ele>
        <time>2012-05-17T07:15:09Z</time>
      </trkpt>
      <trkpt lat="43.66458" lon="7.01106">
        <ele>265.4613037</ele>
        <time>2012-05-17T07:15:22Z</time>
      </trkpt>
      <trkpt lat="43.66424" lon="7.01076">
        <ele>266.4224854</ele>
        <time>2012-05-17T07:15:43Z</time>
      </trkpt>
      <trkpt lat="43.664" lon="7.01056">
        <ele>267.864502</ele>
        <time>2012-05-17T07:16:00Z</time>
      </trkpt>
      <trkpt lat="43.66379" lon="7.01035">
        <ele>268.8258057</ele>
        <time>2012-05-17T07:16:20Z</time>
      </trkpt>
      <trkpt lat="43.66362" lon="7.01005">
        <ele>269.7871094</ele>
        <time>2012-05-17T07:16:40Z</time>
      </trkpt>
      <trkpt lat="43.66327" lon="7.00977">
        <ele>272.6711426</ele>
        <time>2012-05-17T07:17:07Z</time>
      </trkpt>
      <trkpt lat="43.66293" lon="7.00964">
        <ele>275.5550537</ele>
        <time>2012-05-17T07:17:33Z</time>
      </trkpt>
      <trkpt lat="43.66289" lon="7.00966">
        <ele>276.9970703</ele>
        <time>2012-05-17T07:17:37Z</time>
      </trkpt>
      <trkpt lat="43.66284" lon="7.00969">
        <ele>277.4776611</ele>
        <time>2012-05-17T07:17:40Z</time>
      </trkpt>
      <trkpt lat="43.66254" lon="7.00969">
        <ele>279.8808594</ele>
        <time>2012-05-17T07:18:05Z</time>
      </trkpt>
      <trkpt lat="43.66211" lon="7.00962">
        <ele>280.8424072</ele>
        <time>2012-05-17T07:18:27Z</time>
      </trkpt>
      <trkpt lat="43.66175" lon="7.00936">
        <ele>281.8035889</ele>
        <time>2012-05-17T07:18:46Z</time>
      </trkpt>
      <trkpt lat="43.66143" lon="7.0093">
        <ele>284.2069092</ele>
        <time>2012-05-17T07:19:03Z</time>
      </trkpt>
      <trkpt lat="43.66134" lon="7.00938">
        <ele>285.1682129</ele>
        <time>2012-05-17T07:19:11Z</time>
      </trkpt>
      <trkpt lat="43.66141" lon="7.00945">
        <ele>282.7650146</ele>
        <time>2012-05-17T07:19:17Z</time>
      </trkpt>
      <trkpt lat="43.66132" lon="7.00988">
        <ele>280.8424072</ele>
        <time>2012-05-17T07:19:35Z</time>
      </trkpt>
      <trkpt lat="43.66128" lon="7.01018">
        <ele>279.4002686</ele>
        <time>2012-05-17T07:19:55Z</time>
      </trkpt>
      <trkpt lat="43.66128" lon="7.01029">
        <ele>280.3616943</ele>
        <time>2012-05-17T07:20:19Z</time>
      </trkpt>
      <trkpt lat="43.66128" lon="7.01037">
        <ele>281.322998</ele>
        <time>2012-05-17T07:20:36Z</time>
      </trkpt>
      <trkpt lat="43.66128" lon="7.01041">
        <ele>281.322998</ele>
        <time>2012-05-17T07:20:40Z</time>
      </trkpt>
      <trkpt lat="43.66104" lon="7.01095">
        <ele>281.322998</ele>
        <time>2012-05-17T07:21:06Z</time>
      </trkpt>
      <trkpt lat="43.66085" lon="7.01172">
        <ele>277.958252</ele>
        <time>2012-05-17T07:21:28Z</time>
      </trkpt>
      <trkpt lat="43.66061" lon="7.01273">
        <ele>278.4389648</ele>
        <time>2012-05-17T07:21:49Z</time>
      </trkpt>
      <trkpt lat="43.66035" lon="7.01391">
        <ele>275.5550537</ele>
        <time>2012-05-17T07:22:07Z</time>
      </trkpt>
      <trkpt lat="43.66023" lon="7.01443">
        <ele>275.0744629</ele>
        <time>2012-05-17T07:22:17Z</time>
      </trkpt>
      <trkpt lat="43.66012" lon="7.01479">
        <ele>275.5550537</ele>
        <time>2012-05-17T07:22:28Z</time>
      </trkpt>
      <trkpt lat="43.66016" lon="7.01488">
        <ele>275.5550537</ele>
        <time>2012-05-17T07:22:32Z</time>
      </trkpt>
      <trkpt lat="43.6605" lon="7.01518">
        <ele>274.59375</ele>
        <time>2012-05-17T07:22:46Z</time>
      </trkpt>
      <trkpt lat="43.66096" lon="7.01522">
        <ele>274.1130371</ele>
        <time>2012-05-17T07:23:01Z</time>
      </trkpt>
      <trkpt lat="43.6616" lon="7.01574">
        <ele>272.6711426</ele>
        <time>2012-05-17T07:23:24Z</time>
      </trkpt>
      <trkpt lat="43.66177" lon="7.01584">
        <ele>272.6711426</ele>
        <time>2012-05-17T07:23:29Z</time>
      </trkpt>
      <trkpt lat="43.66188" lon="7.01599">
        <ele>272.6711426</ele>
        <time>2012-05-17T07:23:33Z</time>
      </trkpt>
      <trkpt lat="43.6622" lon="7.01623">
        <ele>274.1130371</ele>
        <time>2012-05-17T07:23:45Z</time>
      </trkpt>
      <trkpt lat="43.66263" lon="7.0161">
        <ele>271.7097168</ele>
        <time>2012-05-17T07:24:04Z</time>
      </trkpt>
      <trkpt lat="43.66342" lon="7.01602">
        <ele>268.8258057</ele>
        <time>2012-05-17T07:24:30Z</time>
      </trkpt>
      <trkpt lat="43.66364" lon="7.01608">
        <ele>268.3450928</ele>
        <time>2012-05-17T07:24:37Z</time>
      </trkpt>
      <trkpt lat="43.6637" lon="7.01621">
        <ele>266.9031982</ele>
        <time>2012-05-17T07:24:41Z</time>
      </trkpt>
      <trkpt lat="43.6639" lon="7.01698">
        <ele>264.4998779</ele>
        <time>2012-05-17T07:25:02Z</time>
      </trkpt>
      <trkpt lat="43.66381" lon="7.0178">
        <ele>264.4998779</ele>
        <time>2012-05-17T07:25:24Z</time>
      </trkpt>
      <trkpt lat="43.66351" lon="7.01868">
        <ele>263.5385742</ele>
        <time>2012-05-17T07:25:57Z</time>
      </trkpt>
      <trkpt lat="43.66323" lon="7.0196">
        <ele>263.0578613</ele>
        <time>2012-05-17T07:26:26Z</time>
      </trkpt>
      <trkpt lat="43.66312" lon="7.01983">
        <ele>264.0192871</ele>
        <time>2012-05-17T07:26:32Z</time>
      </trkpt>
      <trkpt lat="43.66312" lon="7.02016">
        <ele>263.5385742</ele>
        <time>2012-05-17T07:26:39Z</time>
      </trkpt>
      <trkpt lat="43.66319" lon="7.02065">
        <ele>263.0578613</ele>
        <time>2012-05-17T07:26:51Z</time>
      </trkpt>
      <trkpt lat="43.66323" lon="7.0208">
        <ele>263.0578613</ele>
        <time>2012-05-17T07:26:56Z</time>
      </trkpt>
      <trkpt lat="43.66308" lon="7.02147">
        <ele>262.0965576</ele>
        <time>2012-05-17T07:27:21Z</time>
      </trkpt>
      <trkpt lat="43.66295" lon="7.02224">
        <ele>258.7319336</ele>
        <time>2012-05-17T07:27:44Z</time>
      </trkpt>
      <trkpt lat="43.66299" lon="7.02286">
        <ele>261.6159668</ele>
        <time>2012-05-17T07:28:08Z</time>
      </trkpt>
      <trkpt lat="43.66291" lon="7.0234">
        <ele>260.654541</ele>
        <time>2012-05-17T07:28:23Z</time>
      </trkpt>
      <trkpt lat="43.66199" lon="7.02445">
        <ele>259.6933594</ele>
        <time>2012-05-17T07:28:29Z</time>
      </trkpt>
      <trkpt lat="43.66196" lon="7.02479">
        <ele>258.7319336</ele>
        <time>2012-05-17T07:28:33Z</time>
      </trkpt>
      <trkpt lat="43.66186" lon="7.0249">
        <ele>258.7319336</ele>
        <time>2012-05-17T07:28:36Z</time>
      </trkpt>
      <trkpt lat="43.66184" lon="7.0252">
        <ele>257.770752</ele>
        <time>2012-05-17T07:28:40Z</time>
      </trkpt>
      <trkpt lat="43.66216" lon="7.02571">
        <ele>257.2900391</ele>
        <time>2012-05-17T07:28:52Z</time>
      </trkpt>
      <trkpt lat="43.66211" lon="7.02576">
        <ele>257.2900391</ele>
        <time>2012-05-17T07:28:54Z</time>
      </trkpt>
      <trkpt lat="43.66194" lon="7.02601">
        <ele>256.8093262</ele>
        <time>2012-05-17T07:29:00Z</time>
      </trkpt>
      <trkpt lat="43.66188" lon="7.02608">
        <ele>256.8093262</ele>
        <time>2012-05-17T07:29:02Z</time>
      </trkpt>
      <trkpt lat="43.66145" lon="7.0258">
        <ele>255.8480225</ele>
        <time>2012-05-17T07:29:14Z</time>
      </trkpt>
      <trkpt lat="43.66128" lon="7.02548">
        <ele>258.2513428</ele>
        <time>2012-05-17T07:29:21Z</time>
      </trkpt>
      <trkpt lat="43.66128" lon="7.02528">
        <ele>258.2513428</ele>
        <time>2012-05-17T07:29:24Z</time>
      </trkpt>
      <trkpt lat="43.66132" lon="7.02501">
        <ele>258.7319336</ele>
        <time>2012-05-17T07:29:28Z</time>
      </trkpt>
      <trkpt lat="43.66132" lon="7.02475">
        <ele>258.2513428</ele>
        <time>2012-05-17T07:29:32Z</time>
      </trkpt>
      <trkpt lat="43.6613" lon="7.0246">
        <ele>257.770752</ele>
        <time>2012-05-17T07:29:35Z</time>
      </trkpt>
      <trkpt lat="43.66121" lon="7.02464">
        <ele>256.3287354</ele>
        <time>2012-05-17T07:29:39Z</time>
      </trkpt>
      <trkpt lat="43.66085" lon="7.02556">
        <ele>251.0413818</ele>
        <time>2012-05-17T07:29:57Z</time>
      </trkpt>
      <trkpt lat="43.66076" lon="7.02655">
        <ele>246.2348633</ele>
        <time>2012-05-17T07:30:17Z</time>
      </trkpt>
      <trkpt lat="43.66119" lon="7.02694">
        <ele>245.7541504</ele>
        <time>2012-05-17T07:30:30Z</time>
      </trkpt>
      <trkpt lat="43.66143" lon="7.02717">
        <ele>244.7928467</ele>
        <time>2012-05-17T07:30:36Z</time>
      </trkpt>
      <trkpt lat="43.66147" lon="7.0273">
        <ele>243.831543</ele>
        <time>2012-05-17T07:30:38Z</time>
      </trkpt>
      <trkpt lat="43.66169" lon="7.02767">
        <ele>240.467041</ele>
        <time>2012-05-17T07:30:45Z</time>
      </trkpt>
      <trkpt lat="43.66175" lon="7.02795">
        <ele>238.5443115</ele>
        <time>2012-05-17T07:30:50Z</time>
      </trkpt>
      <trkpt lat="43.66169" lon="7.02827">
        <ele>236.1409912</ele>
        <time>2012-05-17T07:30:59Z</time>
      </trkpt>
      <trkpt lat="43.66173" lon="7.02831">
        <ele>227.0085449</ele>
        <time>2012-05-17T07:31:27Z</time>
      </trkpt>
      <trkpt lat="43.66188" lon="7.02868">
        <ele>222.2017822</ele>
        <time>2012-05-17T07:31:40Z</time>
      </trkpt>
      <trkpt lat="43.66194" lon="7.02906">
        <ele>219.3179932</ele>
        <time>2012-05-17T07:31:54Z</time>
      </trkpt>
      <trkpt lat="43.66158" lon="7.02971">
        <ele>217.3953857</ele>
        <time>2012-05-17T07:32:10Z</time>
      </trkpt>
      <trkpt lat="43.66111" lon="7.03031">
        <ele>214.9919434</ele>
        <time>2012-05-17T07:32:25Z</time>
      </trkpt>
      <trkpt lat="43.66093" lon="7.03091">
        <ele>208.2628174</ele>
        <time>2012-05-17T07:32:40Z</time>
      </trkpt>
      <trkpt lat="43.66093" lon="7.03093">
        <ele>208.2628174</ele>
        <time>2012-05-17T07:32:41Z</time>
      </trkpt>
      <trkpt lat="43.66096" lon="7.03097">
        <ele>206.3400879</ele>
        <time>2012-05-17T07:32:45Z</time>
      </trkpt>
      <trkpt lat="43.66098" lon="7.03146">
        <ele>203.9368896</ele>
        <time>2012-05-17T07:33:07Z</time>
      </trkpt>
      <trkpt lat="43.66104" lon="7.03209">
        <ele>199.6108398</ele>
        <time>2012-05-17T07:33:24Z</time>
      </trkpt>
      <trkpt lat="43.66106" lon="7.03222">
        <ele>198.6495361</ele>
        <time>2012-05-17T07:33:28Z</time>
      </trkpt>
      <trkpt lat="43.66126" lon="7.0329">
        <ele>194.3237305</ele>
        <time>2012-05-17T07:33:49Z</time>
      </trkpt>
      <trkpt lat="43.66119" lon="7.03305">
        <ele>193.3623047</ele>
        <time>2012-05-17T07:33:56Z</time>
      </trkpt>
      <trkpt lat="43.66115" lon="7.0331">
        <ele>193.3623047</ele>
        <time>2012-05-17T07:34:00Z</time>
      </trkpt>
      <trkpt lat="43.66106" lon="7.0332">
        <ele>191.9202881</ele>
        <time>2012-05-17T07:34:11Z</time>
      </trkpt>
      <trkpt lat="43.66098" lon="7.0335">
        <ele>192.401123</ele>
        <time>2012-05-17T07:34:29Z</time>
      </trkpt>
      <trkpt lat="43.66091" lon="7.03374">
        <ele>191.4395752</ele>
        <time>2012-05-17T07:34:44Z</time>
      </trkpt>
      <trkpt lat="43.66059" lon="7.03438">
        <ele>189.5169678</ele>
        <time>2012-05-17T07:35:05Z</time>
      </trkpt>
      <trkpt lat="43.66014" lon="7.03458">
        <ele>189.036377</ele>
        <time>2012-05-17T07:35:22Z</time>
      </trkpt>
      <trkpt lat="43.65973" lon="7.03445">
        <ele>187.5943604</ele>
        <time>2012-05-17T07:35:38Z</time>
      </trkpt>
      <trkpt lat="43.65947" lon="7.03408">
        <ele>186.6331787</ele>
        <time>2012-05-17T07:35:57Z</time>
      </trkpt>
      <trkpt lat="43.65943" lon="7.0337">
        <ele>187.1137695</ele>
        <time>2012-05-17T07:36:09Z</time>
      </trkpt>
      <trkpt lat="43.65965" lon="7.03331">
        <ele>189.036377</ele>
        <time>2012-05-17T07:36:29Z</time>
      </trkpt>
      <trkpt lat="43.65995" lon="7.03288">
        <ele>190.9589844</ele>
        <time>2012-05-17T07:36:54Z</time>
      </trkpt>
      <trkpt lat="43.65978" lon="7.03243">
        <ele>191.4395752</ele>
        <time>2012-05-17T07:37:14Z</time>
      </trkpt>
      <trkpt lat="43.65926" lon="7.03172">
        <ele>189.036377</ele>
        <time>2012-05-17T07:37:50Z</time>
      </trkpt>
      <trkpt lat="43.65924" lon="7.0317">
        <ele>189.5169678</ele>
        <time>2012-05-17T07:37:51Z</time>
      </trkpt>
      <trkpt lat="43.65911" lon="7.03116">
        <ele>190.4783936</ele>
        <time>2012-05-17T07:38:02Z</time>
      </trkpt>
      <trkpt lat="43.65866" lon="7.03119">
        <ele>188.5557861</ele>
        <time>2012-05-17T07:38:17Z</time>
      </trkpt>
      <trkpt lat="43.65808" lon="7.03121">
        <ele>188.0750732</ele>
        <time>2012-05-17T07:38:39Z</time>
      </trkpt>
      <trkpt lat="43.65722" lon="7.03099">
        <ele>188.5557861</ele>
        <time>2012-05-17T07:39:03Z</time>
      </trkpt>
      <trkpt lat="43.65684" lon="7.03097">
        <ele>189.036377</ele>
        <time>2012-05-17T07:39:15Z</time>
      </trkpt>
      <trkpt lat="43.65684" lon="7.03108">
        <ele>189.036377</ele>
        <time>2012-05-17T07:39:19Z</time>
      </trkpt>
      <trkpt lat="43.65705" lon="7.03142">
        <ele>187.5943604</ele>
        <time>2012-05-17T07:39:29Z</time>
      </trkpt>
      <trkpt lat="43.65714" lon="7.03161">
        <ele>186.1524658</ele>
        <time>2012-05-17T07:39:33Z</time>
      </trkpt>
      <trkpt lat="43.65705" lon="7.03228">
        <ele>185.6717529</ele>
        <time>2012-05-17T07:39:45Z</time>
      </trkpt>
      <trkpt lat="43.65703" lon="7.03239">
        <ele>185.6717529</ele>
        <time>2012-05-17T07:39:47Z</time>
      </trkpt>
      <trkpt lat="43.65714" lon="7.03275">
        <ele>185.1911621</ele>
        <time>2012-05-17T07:39:56Z</time>
      </trkpt>
      <trkpt lat="43.65718" lon="7.0328">
        <ele>185.1911621</ele>
        <time>2012-05-17T07:39:57Z</time>
      </trkpt>
      <trkpt lat="43.65726" lon="7.03301">
        <ele>184.7105713</ele>
        <time>2012-05-17T07:40:01Z</time>
      </trkpt>
      <trkpt lat="43.65724" lon="7.0332">
        <ele>184.7105713</ele>
        <time>2012-05-17T07:40:04Z</time>
      </trkpt>
      <trkpt lat="43.65709" lon="7.03365">
        <ele>184.7105713</ele>
        <time>2012-05-17T07:40:12Z</time>
      </trkpt>
      <trkpt lat="43.65718" lon="7.03404">
        <ele>182.3071289</ele>
        <time>2012-05-17T07:40:22Z</time>
      </trkpt>
      <trkpt lat="43.65726" lon="7.03415">
        <ele>182.3071289</ele>
        <time>2012-05-17T07:40:25Z</time>
      </trkpt>
      <trkpt lat="43.65731" lon="7.03423">
        <ele>181.826416</ele>
        <time>2012-05-17T07:40:27Z</time>
      </trkpt>
      <trkpt lat="43.65739" lon="7.03432">
        <ele>181.3458252</ele>
        <time>2012-05-17T07:40:29Z</time>
      </trkpt>
      <trkpt lat="43.65804" lon="7.03477">
        <ele>178.4619141</ele>
        <time>2012-05-17T07:40:43Z</time>
      </trkpt>
      <trkpt lat="43.65853" lon="7.03498">
        <ele>179.4232178</ele>
        <time>2012-05-17T07:40:57Z</time>
      </trkpt>
      <trkpt lat="43.6589" lon="7.03503">
        <ele>181.3458252</ele>
        <time>2012-05-17T07:41:15Z</time>
      </trkpt>
      <trkpt lat="43.65894" lon="7.03505">
        <ele>181.3458252</ele>
        <time>2012-05-17T07:41:19Z</time>
      </trkpt>
      <trkpt lat="43.65877" lon="7.03543">
        <ele>181.3458252</ele>
        <time>2012-05-17T07:41:30Z</time>
      </trkpt>
      <trkpt lat="43.65849" lon="7.03552">
        <ele>181.3458252</ele>
        <time>2012-05-17T07:41:40Z</time>
      </trkpt>
      <trkpt lat="43.65806" lon="7.03567">
        <ele>180.3845215</ele>
        <time>2012-05-17T07:41:55Z</time>
      </trkpt>
      <trkpt lat="43.6575" lon="7.03582">
        <ele>180.8652344</ele>
        <time>2012-05-17T07:42:13Z</time>
      </trkpt>
      <trkpt lat="43.65711" lon="7.03601">
        <ele>179.4232178</ele>
        <time>2012-05-17T07:42:28Z</time>
      </trkpt>
      <trkpt lat="43.65694" lon="7.03627">
        <ele>181.3458252</ele>
        <time>2012-05-17T07:42:38Z</time>
      </trkpt>
      <trkpt lat="43.6569" lon="7.03653">
        <ele>181.826416</ele>
        <time>2012-05-17T07:42:45Z</time>
      </trkpt>
      <trkpt lat="43.6566" lon="7.03691">
        <ele>182.3071289</ele>
        <time>2012-05-17T07:43:00Z</time>
      </trkpt>
      <trkpt lat="43.65617" lon="7.03724">
        <ele>182.3071289</ele>
        <time>2012-05-17T07:43:16Z</time>
      </trkpt>
      <trkpt lat="43.65593" lon="7.03756">
        <ele>180.8652344</ele>
        <time>2012-05-17T07:43:24Z</time>
      </trkpt>
      <trkpt lat="43.65566" lon="7.03773">
        <ele>179.9038086</ele>
        <time>2012-05-17T07:43:30Z</time>
      </trkpt>
      <trkpt lat="43.65551" lon="7.0379">
        <ele>179.4232178</ele>
        <time>2012-05-17T07:43:34Z</time>
      </trkpt>
      <trkpt lat="43.65533" lon="7.03803">
        <ele>178.4619141</ele>
        <time>2012-05-17T07:43:38Z</time>
      </trkpt>
      <trkpt lat="43.6551" lon="7.0381">
        <ele>177.9812012</ele>
        <time>2012-05-17T07:43:43Z</time>
      </trkpt>
      <trkpt lat="43.65475" lon="7.03812">
        <ele>175.5778809</ele>
        <time>2012-05-17T07:43:50Z</time>
      </trkpt>
      <trkpt lat="43.65456" lon="7.03799">
        <ele>174.6165771</ele>
        <time>2012-05-17T07:43:53Z</time>
      </trkpt>
      <trkpt lat="43.65428" lon="7.03756">
        <ele>173.1746826</ele>
        <time>2012-05-17T07:43:59Z</time>
      </trkpt>
      <trkpt lat="43.65409" lon="7.03696">
        <ele>173.1746826</ele>
        <time>2012-05-17T07:44:12Z</time>
      </trkpt>
      <trkpt lat="43.65392" lon="7.03631">
        <ele>172.6939697</ele>
        <time>2012-05-17T07:44:36Z</time>
      </trkpt>
      <trkpt lat="43.65377" lon="7.03578">
        <ele>173.1746826</ele>
        <time>2012-05-17T07:44:54Z</time>
      </trkpt>
      <trkpt lat="43.65366" lon="7.03503">
        <ele>173.6552734</ele>
        <time>2012-05-17T07:45:17Z</time>
      </trkpt>
      <trkpt lat="43.65362" lon="7.03449">
        <ele>174.1358643</ele>
        <time>2012-05-17T07:45:35Z</time>
      </trkpt>
      <trkpt lat="43.65357" lon="7.03406">
        <ele>176.5393066</ele>
        <time>2012-05-17T07:45:52Z</time>
      </trkpt>
      <trkpt lat="43.65351" lon="7.03372">
        <ele>180.3845215</ele>
        <time>2012-05-17T07:46:10Z</time>
      </trkpt>
      <trkpt lat="43.65355" lon="7.03348">
        <ele>181.3458252</ele>
        <time>2012-05-17T07:46:23Z</time>
      </trkpt>
      <trkpt lat="43.65355" lon="7.03316">
        <ele>185.1911621</ele>
        <time>2012-05-17T07:46:39Z</time>
      </trkpt>
      <trkpt lat="43.65347" lon="7.03295">
        <ele>188.5557861</ele>
        <time>2012-05-17T07:47:02Z</time>
      </trkpt>
      <trkpt lat="43.6533" lon="7.03295">
        <ele>196.2463379</ele>
        <time>2012-05-17T07:55:07Z</time>
      </trkpt>
      <trkpt lat="43.65297" lon="7.03237">
        <ele>195.2849121</ele>
        <time>2012-05-17T07:55:31Z</time>
      </trkpt>
      <trkpt lat="43.65259" lon="7.03164">
        <ele>192.401123</ele>
        <time>2012-05-17T07:55:51Z</time>
      </trkpt>
      <trkpt lat="43.65246" lon="7.03151">
        <ele>191.4395752</ele>
        <time>2012-05-17T07:55:54Z</time>
      </trkpt>
      <trkpt lat="43.65233" lon="7.03086">
        <ele>189.5169678</ele>
        <time>2012-05-17T07:56:04Z</time>
      </trkpt>
      <trkpt lat="43.65218" lon="7.03052">
        <ele>189.036377</ele>
        <time>2012-05-17T07:56:11Z</time>
      </trkpt>
      <trkpt lat="43.65177" lon="7.03037">
        <ele>189.5169678</ele>
        <time>2012-05-17T07:56:21Z</time>
      </trkpt>
      <trkpt lat="43.65171" lon="7.03035">
        <ele>189.036377</ele>
        <time>2012-05-17T07:56:23Z</time>
      </trkpt>
      <trkpt lat="43.65089" lon="7.03041">
        <ele>185.1911621</ele>
        <time>2012-05-17T07:56:44Z</time>
      </trkpt>
      <trkpt lat="43.65051" lon="7.03058">
        <ele>182.3071289</ele>
        <time>2012-05-17T07:56:55Z</time>
      </trkpt>
      <trkpt lat="43.65048" lon="7.03067">
        <ele>182.3071289</ele>
        <time>2012-05-17T07:56:59Z</time>
      </trkpt>
      <trkpt lat="43.65046" lon="7.03136">
        <ele>179.4232178</ele>
        <time>2012-05-17T07:57:18Z</time>
      </trkpt>
      <trkpt lat="43.65055" lon="7.03187">
        <ele>177.9812012</ele>
        <time>2012-05-17T07:57:31Z</time>
      </trkpt>
      <trkpt lat="43.65055" lon="7.03249">
        <ele>176.5393066</ele>
        <time>2012-05-17T07:57:44Z</time>
      </trkpt>
      <trkpt lat="43.65036" lon="7.03307">
        <ele>176.0585938</ele>
        <time>2012-05-17T07:57:57Z</time>
      </trkpt>
      <trkpt lat="43.65055" lon="7.03387">
        <ele>176.0585938</ele>
        <time>2012-05-17T07:58:14Z</time>
      </trkpt>
      <trkpt lat="43.65083" lon="7.03453">
        <ele>173.1746826</ele>
        <time>2012-05-17T07:58:28Z</time>
      </trkpt>
      <trkpt lat="43.65083" lon="7.03473">
        <ele>173.1746826</ele>
        <time>2012-05-17T07:58:31Z</time>
      </trkpt>
      <trkpt lat="43.65074" lon="7.03548">
        <ele>171.2520752</ele>
        <time>2012-05-17T07:58:44Z</time>
      </trkpt>
      <trkpt lat="43.65081" lon="7.03644">
        <ele>171.732666</ele>
        <time>2012-05-17T07:59:02Z</time>
      </trkpt>
      <trkpt lat="43.65091" lon="7.03683">
        <ele>173.1746826</ele>
        <time>2012-05-17T07:59:16Z</time>
      </trkpt>
      <trkpt lat="43.65089" lon="7.03689">
        <ele>174.1358643</ele>
        <time>2012-05-17T07:59:19Z</time>
      </trkpt>
      <trkpt lat="43.65063" lon="7.03694">
        <ele>178.4619141</ele>
        <time>2012-05-17T07:59:36Z</time>
      </trkpt>
      <trkpt lat="43.65063" lon="7.03694">
        <ele>178.4619141</ele>
        <time>2012-05-17T07:59:37Z</time>
      </trkpt>
      <trkpt lat="43.65061" lon="7.03704">
        <ele>178.942627</ele>
        <time>2012-05-17T07:59:42Z</time>
      </trkpt>
      <trkpt lat="43.65055" lon="7.03713">
        <ele>179.4232178</ele>
        <time>2012-05-17T07:59:49Z</time>
      </trkpt>
      <trkpt lat="43.65033" lon="7.03737">
        <ele>179.9038086</ele>
        <time>2012-05-17T08:00:11Z</time>
      </trkpt>
      <trkpt lat="43.65029" lon="7.03752">
        <ele>178.4619141</ele>
        <time>2012-05-17T08:00:29Z</time>
      </trkpt>
      <trkpt lat="43.65023" lon="7.03782">
        <ele>177.0200195</ele>
        <time>2012-05-17T08:00:43Z</time>
      </trkpt>
      <trkpt lat="43.65031" lon="7.03837">
        <ele>174.6165771</ele>
        <time>2012-05-17T08:01:08Z</time>
      </trkpt>
      <trkpt lat="43.65068" lon="7.03889">
        <ele>176.5393066</ele>
        <time>2012-05-17T08:01:32Z</time>
      </trkpt>
      <trkpt lat="43.65076" lon="7.03932">
        <ele>178.4619141</ele>
        <time>2012-05-17T08:01:44Z</time>
      </trkpt>
      <trkpt lat="43.65057" lon="7.03996">
        <ele>179.4232178</ele>
        <time>2012-05-17T08:02:02Z</time>
      </trkpt>
      <trkpt lat="43.65018" lon="7.04095">
        <ele>179.9038086</ele>
        <time>2012-05-17T08:02:26Z</time>
      </trkpt>
      <trkpt lat="43.65001" lon="7.04118">
        <ele>179.9038086</ele>
        <time>2012-05-17T08:02:32Z</time>
      </trkpt>
      <trkpt lat="43.64952" lon="7.04166">
        <ele>178.4619141</ele>
        <time>2012-05-17T08:02:43Z</time>
      </trkpt>
      <trkpt lat="43.64905" lon="7.04213">
        <ele>178.4619141</ele>
        <time>2012-05-17T08:02:57Z</time>
      </trkpt>
      <trkpt lat="43.64892" lon="7.0423">
        <ele>178.942627</ele>
        <time>2012-05-17T08:03:02Z</time>
      </trkpt>
      <trkpt lat="43.64885" lon="7.04249">
        <ele>179.4232178</ele>
        <time>2012-05-17T08:03:08Z</time>
      </trkpt>
      <trkpt lat="43.64862" lon="7.0429">
        <ele>179.9038086</ele>
        <time>2012-05-17T08:03:21Z</time>
      </trkpt>
      <trkpt lat="43.64827" lon="7.04329">
        <ele>178.942627</ele>
        <time>2012-05-17T08:03:35Z</time>
      </trkpt>
      <trkpt lat="43.64823" lon="7.04331">
        <ele>178.942627</ele>
        <time>2012-05-17T08:03:37Z</time>
      </trkpt>
      <trkpt lat="43.64817" lon="7.04324">
        <ele>178.4619141</ele>
        <time>2012-05-17T08:03:41Z</time>
      </trkpt>
      <trkpt lat="43.64791" lon="7.04292">
        <ele>179.9038086</ele>
        <time>2012-05-17T08:03:53Z</time>
      </trkpt>
      <trkpt lat="43.64787" lon="7.0429">
        <ele>179.9038086</ele>
        <time>2012-05-17T08:03:55Z</time>
      </trkpt>
      <trkpt lat="43.6478" lon="7.04279">
        <ele>179.9038086</ele>
        <time>2012-05-17T08:03:59Z</time>
      </trkpt>
      <trkpt lat="43.64769" lon="7.04264">
        <ele>179.9038086</ele>
        <time>2012-05-17T08:04:05Z</time>
      </trkpt>
      <trkpt lat="43.64733" lon="7.04254">
        <ele>179.9038086</ele>
        <time>2012-05-17T08:04:21Z</time>
      </trkpt>
      <trkpt lat="43.64686" lon="7.0423">
        <ele>177.9812012</ele>
        <time>2012-05-17T08:04:48Z</time>
      </trkpt>
      <trkpt lat="43.64686" lon="7.04224">
        <ele>178.4619141</ele>
        <time>2012-05-17T08:04:51Z</time>
      </trkpt>
      <trkpt lat="43.64656" lon="7.04219">
        <ele>179.4232178</ele>
        <time>2012-05-17T08:05:05Z</time>
      </trkpt>
      <trkpt lat="43.6466" lon="7.042">
        <ele>180.8652344</ele>
        <time>2012-05-17T08:05:12Z</time>
      </trkpt>
      <trkpt lat="43.64673" lon="7.04144">
        <ele>183.2684326</ele>
        <time>2012-05-17T08:05:31Z</time>
      </trkpt>
      <trkpt lat="43.64697" lon="7.04052">
        <ele>185.1911621</ele>
        <time>2012-05-17T08:06:04Z</time>
      </trkpt>
      <trkpt lat="43.64707" lon="7.0397">
        <ele>187.5943604</ele>
        <time>2012-05-17T08:06:33Z</time>
      </trkpt>
      <trkpt lat="43.64735" lon="7.03889">
        <ele>190.9589844</ele>
        <time>2012-05-17T08:07:03Z</time>
      </trkpt>
      <trkpt lat="43.64772" lon="7.03904">
        <ele>192.401123</ele>
        <time>2012-05-17T08:07:21Z</time>
      </trkpt>
      <trkpt lat="43.64815" lon="7.0391">
        <ele>195.765625</ele>
        <time>2012-05-17T08:07:41Z</time>
      </trkpt>
      <trkpt lat="43.64881" lon="7.03938">
        <ele>196.7269287</ele>
        <time>2012-05-17T08:08:14Z</time>
      </trkpt>
      <trkpt lat="43.64883" lon="7.0394">
        <ele>196.7269287</ele>
        <time>2012-05-17T08:08:16Z</time>
      </trkpt>
      <trkpt lat="43.64883" lon="7.03951">
        <ele>197.6882324</ele>
        <time>2012-05-17T08:08:22Z</time>
      </trkpt>
      <trkpt lat="43.64883" lon="7.04003">
        <ele>195.765625</ele>
        <time>2012-05-17T08:08:42Z</time>
      </trkpt>
      <trkpt lat="43.64881" lon="7.04065">
        <ele>195.765625</ele>
        <time>2012-05-17T08:08:53Z</time>
      </trkpt>
      <trkpt lat="43.64881" lon="7.04241">
        <ele>195.2849121</ele>
        <time>2012-05-17T08:08:57Z</time>
      </trkpt>
      <trkpt lat="43.64892" lon="7.04264">
        <ele>194.3237305</ele>
        <time>2012-05-17T08:09:04Z</time>
      </trkpt>
      <trkpt lat="43.64896" lon="7.04258">
        <ele>193.8430176</ele>
        <time>2012-05-17T08:09:06Z</time>
      </trkpt>
      <trkpt lat="43.64903" lon="7.04247">
        <ele>193.8430176</ele>
        <time>2012-05-17T08:09:10Z</time>
      </trkpt>
      <trkpt lat="43.64905" lon="7.04243">
        <ele>193.8430176</ele>
        <time>2012-05-17T08:09:26Z</time>
      </trkpt>
      <trkpt lat="43.64922" lon="7.04221">
        <ele>192.8817139</ele>
        <time>2012-05-17T08:09:43Z</time>
      </trkpt>
      <trkpt lat="43.6496" lon="7.04185">
        <ele>191.4395752</ele>
        <time>2012-05-17T08:10:00Z</time>
      </trkpt>
      <trkpt lat="43.64963" lon="7.04181">
        <ele>190.4783936</ele>
        <time>2012-05-17T08:10:25Z</time>
      </trkpt>
      <trkpt lat="43.64984" lon="7.04161">
        <ele>190.9589844</ele>
        <time>2012-05-17T08:10:37Z</time>
      </trkpt>
      <trkpt lat="43.65027" lon="7.04114">
        <ele>190.9589844</ele>
        <time>2012-05-17T08:10:55Z</time>
      </trkpt>
      <trkpt lat="43.65068" lon="7.04043">
        <ele>189.9976807</ele>
        <time>2012-05-17T08:11:15Z</time>
      </trkpt>
      <trkpt lat="43.65091" lon="7.03966">
        <ele>191.4395752</ele>
        <time>2012-05-17T08:11:37Z</time>
      </trkpt>
      <trkpt lat="43.65089" lon="7.03921">
        <ele>190.9589844</ele>
        <time>2012-05-17T08:11:46Z</time>
      </trkpt>
      <trkpt lat="43.65066" lon="7.03842">
        <ele>189.5169678</ele>
        <time>2012-05-17T08:12:05Z</time>
      </trkpt>
      <trkpt lat="43.65066" lon="7.03835">
        <ele>189.036377</ele>
        <time>2012-05-17T08:12:12Z</time>
      </trkpt>
      <trkpt lat="43.65063" lon="7.03827">
        <ele>188.0750732</ele>
        <time>2012-05-17T08:12:19Z</time>
      </trkpt>
      <trkpt lat="43.6507" lon="7.03814">
        <ele>186.6331787</ele>
        <time>2012-05-17T08:12:23Z</time>
      </trkpt>
      <trkpt lat="43.65072" lon="7.03794">
        <ele>186.1524658</ele>
        <time>2012-05-17T08:12:26Z</time>
      </trkpt>
      <trkpt lat="43.65083" lon="7.03737">
        <ele>187.1137695</ele>
        <time>2012-05-17T08:12:39Z</time>
      </trkpt>
      <trkpt lat="43.65083" lon="7.03694">
        <ele>184.7105713</ele>
        <time>2012-05-17T08:12:51Z</time>
      </trkpt>
      <trkpt lat="43.65089" lon="7.03683">
        <ele>184.2298584</ele>
        <time>2012-05-17T08:12:55Z</time>
      </trkpt>
      <trkpt lat="43.65081" lon="7.03638">
        <ele>179.9038086</ele>
        <time>2012-05-17T08:13:06Z</time>
      </trkpt>
      <trkpt lat="43.65076" lon="7.03561">
        <ele>177.9812012</ele>
        <time>2012-05-17T08:13:22Z</time>
      </trkpt>
      <trkpt lat="43.65081" lon="7.03503">
        <ele>176.5393066</ele>
        <time>2012-05-17T08:13:38Z</time>
      </trkpt>
      <trkpt lat="43.65081" lon="7.03462">
        <ele>176.0585938</ele>
        <time>2012-05-17T08:13:47Z</time>
      </trkpt>
      <trkpt lat="43.65089" lon="7.03449">
        <ele>175.5778809</ele>
        <time>2012-05-17T08:13:51Z</time>
      </trkpt>
      <trkpt lat="43.65113" lon="7.03402">
        <ele>175.5778809</ele>
        <time>2012-05-17T08:14:03Z</time>
      </trkpt>
      <trkpt lat="43.65113" lon="7.03346">
        <ele>177.5006104</ele>
        <time>2012-05-17T08:14:20Z</time>
      </trkpt>
      <trkpt lat="43.65121" lon="7.03312">
        <ele>179.4232178</ele>
        <time>2012-05-17T08:14:34Z</time>
      </trkpt>
      <trkpt lat="43.65134" lon="7.03305">
        <ele>180.8652344</ele>
        <time>2012-05-17T08:14:42Z</time>
      </trkpt>
      <trkpt lat="43.65162" lon="7.03327">
        <ele>183.7490234</ele>
        <time>2012-05-17T08:14:59Z</time>
      </trkpt>
      <trkpt lat="43.65184" lon="7.03329">
        <ele>185.1911621</ele>
        <time>2012-05-17T08:15:15Z</time>
      </trkpt>
      <trkpt lat="43.65186" lon="7.03352">
        <ele>185.1911621</ele>
        <time>2012-05-17T08:15:31Z</time>
      </trkpt>
      <trkpt lat="43.65184" lon="7.03363">
        <ele>184.7105713</ele>
        <time>2012-05-17T08:15:38Z</time>
      </trkpt>
      <trkpt lat="43.65186" lon="7.03374">
        <ele>185.1911621</ele>
        <time>2012-05-17T08:15:44Z</time>
      </trkpt>
      <trkpt lat="43.65179" lon="7.03419">
        <ele>186.1524658</ele>
        <time>2012-05-17T08:16:01Z</time>
      </trkpt>
      <trkpt lat="43.65166" lon="7.03468">
        <ele>184.7105713</ele>
        <time>2012-05-17T08:16:15Z</time>
      </trkpt>
      <trkpt lat="43.65169" lon="7.03479">
        <ele>185.6717529</ele>
        <time>2012-05-17T08:16:19Z</time>
      </trkpt>
      <trkpt lat="43.65186" lon="7.03518">
        <ele>186.6331787</ele>
        <time>2012-05-17T08:16:33Z</time>
      </trkpt>
      <trkpt lat="43.65199" lon="7.03548">
        <ele>184.7105713</ele>
        <time>2012-05-17T08:16:40Z</time>
      </trkpt>
      <trkpt lat="43.65205" lon="7.03565">
        <ele>184.2298584</ele>
        <time>2012-05-17T08:16:43Z</time>
      </trkpt>
      <trkpt lat="43.65231" lon="7.03593">
        <ele>182.7878418</ele>
        <time>2012-05-17T08:16:50Z</time>
      </trkpt>
      <trkpt lat="43.65244" lon="7.03612">
        <ele>182.7878418</ele>
        <time>2012-05-17T08:16:54Z</time>
      </trkpt>
      <trkpt lat="43.65257" lon="7.03685">
        <ele>183.2684326</ele>
        <time>2012-05-17T08:17:08Z</time>
      </trkpt>
      <trkpt lat="43.65235" lon="7.03741">
        <ele>185.1911621</ele>
        <time>2012-05-17T08:17:22Z</time>
      </trkpt>
      <trkpt lat="43.65235" lon="7.03745">
        <ele>185.1911621</ele>
        <time>2012-05-17T08:17:23Z</time>
      </trkpt>
      <trkpt lat="43.65263" lon="7.03775">
        <ele>182.7878418</ele>
        <time>2012-05-17T08:17:35Z</time>
      </trkpt>
      <trkpt lat="43.65306" lon="7.03835">
        <ele>182.7878418</ele>
        <time>2012-05-17T08:18:01Z</time>
      </trkpt>
      <trkpt lat="43.6531" lon="7.03885">
        <ele>182.3071289</ele>
        <time>2012-05-17T08:18:19Z</time>
      </trkpt>
      <trkpt lat="43.65304" lon="7.03951">
        <ele>184.2298584</ele>
        <time>2012-05-17T08:18:35Z</time>
      </trkpt>
      <trkpt lat="43.65319" lon="7.04005">
        <ele>183.7490234</ele>
        <time>2012-05-17T08:18:46Z</time>
      </trkpt>
      <trkpt lat="43.65319" lon="7.04011">
        <ele>183.7490234</ele>
        <time>2012-05-17T08:18:47Z</time>
      </trkpt>
      <trkpt lat="43.6533" lon="7.04028">
        <ele>183.7490234</ele>
        <time>2012-05-17T08:18:51Z</time>
      </trkpt>
      <trkpt lat="43.65336" lon="7.04054">
        <ele>183.7490234</ele>
        <time>2012-05-17T08:18:56Z</time>
      </trkpt>
      <trkpt lat="43.65336" lon="7.04101">
        <ele>183.2684326</ele>
        <time>2012-05-17T08:19:04Z</time>
      </trkpt>
      <trkpt lat="43.65342" lon="7.04123">
        <ele>182.7878418</ele>
        <time>2012-05-17T08:19:08Z</time>
      </trkpt>
      <trkpt lat="43.65353" lon="7.04149">
        <ele>182.3071289</ele>
        <time>2012-05-17T08:19:13Z</time>
      </trkpt>
      <trkpt lat="43.65353" lon="7.04191">
        <ele>182.3071289</ele>
        <time>2012-05-17T08:19:20Z</time>
      </trkpt>
      <trkpt lat="43.6536" lon="7.0423">
        <ele>180.8652344</ele>
        <time>2012-05-17T08:19:27Z</time>
      </trkpt>
      <trkpt lat="43.65355" lon="7.04247">
        <ele>180.3845215</ele>
        <time>2012-05-17T08:19:31Z</time>
      </trkpt>
      <trkpt lat="43.65306" lon="7.04305">
        <ele>183.2684326</ele>
        <time>2012-05-17T08:19:51Z</time>
      </trkpt>
      <trkpt lat="43.6531" lon="7.04322">
        <ele>183.2684326</ele>
        <time>2012-05-17T08:19:55Z</time>
      </trkpt>
      <trkpt lat="43.65325" lon="7.04337">
        <ele>181.826416</ele>
        <time>2012-05-17T08:19:59Z</time>
      </trkpt>
      <trkpt lat="43.65338" lon="7.0435">
        <ele>181.3458252</ele>
        <time>2012-05-17T08:20:02Z</time>
      </trkpt>
      <trkpt lat="43.65362" lon="7.04367">
        <ele>180.8652344</ele>
        <time>2012-05-17T08:20:07Z</time>
      </trkpt>
      <trkpt lat="43.6537" lon="7.0437">
        <ele>180.3845215</ele>
        <time>2012-05-17T08:20:09Z</time>
      </trkpt>
      <trkpt lat="43.65377" lon="7.04385">
        <ele>179.4232178</ele>
        <time>2012-05-17T08:20:13Z</time>
      </trkpt>
      <trkpt lat="43.65372" lon="7.04395">
        <ele>178.4619141</ele>
        <time>2012-05-17T08:20:24Z</time>
      </trkpt>
      <trkpt lat="43.65375" lon="7.04395">
        <ele>177.0200195</ele>
        <time>2012-05-17T08:20:35Z</time>
      </trkpt>
      <trkpt lat="43.65422" lon="7.04391">
        <ele>176.5393066</ele>
        <time>2012-05-17T08:20:57Z</time>
      </trkpt>
      <trkpt lat="43.65437" lon="7.04389">
        <ele>176.0585938</ele>
        <time>2012-05-17T08:21:02Z</time>
      </trkpt>
      <trkpt lat="43.65458" lon="7.04389">
        <ele>175.5778809</ele>
        <time>2012-05-17T08:21:06Z</time>
      </trkpt>
      <trkpt lat="43.65484" lon="7.044">
        <ele>173.6552734</ele>
        <time>2012-05-17T08:21:12Z</time>
      </trkpt>
      <trkpt lat="43.65514" lon="7.04421">
        <ele>170.2906494</ele>
        <time>2012-05-17T08:21:25Z</time>
      </trkpt>
      <trkpt lat="43.6551" lon="7.04447">
        <ele>167.8873291</ele>
        <time>2012-05-17T08:21:34Z</time>
      </trkpt>
      <trkpt lat="43.6552" lon="7.04449">
        <ele>166.4453125</ele>
        <time>2012-05-17T08:21:38Z</time>
      </trkpt>
      <trkpt lat="43.65553" lon="7.04453">
        <ele>164.5227051</ele>
        <time>2012-05-17T08:21:47Z</time>
      </trkpt>
      <trkpt lat="43.65581" lon="7.04453">
        <ele>163.0808105</ele>
        <time>2012-05-17T08:21:59Z</time>
      </trkpt>
      <trkpt lat="43.65583" lon="7.0446">
        <ele>162.1195068</ele>
        <time>2012-05-17T08:22:01Z</time>
      </trkpt>
      <trkpt lat="43.65591" lon="7.0447">
        <ele>161.1582031</ele>
        <time>2012-05-17T08:22:04Z</time>
      </trkpt>
      <trkpt lat="43.65608" lon="7.0447">
        <ele>158.2741699</ele>
        <time>2012-05-17T08:22:10Z</time>
      </trkpt>
      <trkpt lat="43.65651" lon="7.04451">
        <ele>156.8321533</ele>
        <time>2012-05-17T08:22:29Z</time>
      </trkpt>
      <trkpt lat="43.65658" lon="7.04458">
        <ele>154.9095459</ele>
        <time>2012-05-17T08:22:43Z</time>
      </trkpt>
      <trkpt lat="43.65662" lon="7.04458">
        <ele>154.4289551</ele>
        <time>2012-05-17T08:22:53Z</time>
      </trkpt>
      <trkpt lat="43.65666" lon="7.04458">
        <ele>154.4289551</ele>
        <time>2012-05-17T08:23:15Z</time>
      </trkpt>
      <trkpt lat="43.65679" lon="7.04402">
        <ele>157.3128662</ele>
        <time>2012-05-17T08:23:37Z</time>
      </trkpt>
      <trkpt lat="43.6569" lon="7.04348">
        <ele>154.4289551</ele>
        <time>2012-05-17T08:23:50Z</time>
      </trkpt>
      <trkpt lat="43.65694" lon="7.04316">
        <ele>153.9483643</ele>
        <time>2012-05-17T08:23:58Z</time>
      </trkpt>
      <trkpt lat="43.65724" lon="7.04273">
        <ele>152.5063477</ele>
        <time>2012-05-17T08:24:11Z</time>
      </trkpt>
      <trkpt lat="43.6572" lon="7.04254">
        <ele>152.5063477</ele>
        <time>2012-05-17T08:24:22Z</time>
      </trkpt>
      <trkpt lat="43.65724" lon="7.04237">
        <ele>151.064209</ele>
        <time>2012-05-17T08:24:27Z</time>
      </trkpt>
      <trkpt lat="43.65709" lon="7.04232">
        <ele>150.5836182</ele>
        <time>2012-05-17T08:24:34Z</time>
      </trkpt>
      <trkpt lat="43.65658" lon="7.04215">
        <ele>151.064209</ele>
        <time>2012-05-17T08:24:53Z</time>
      </trkpt>
      <trkpt lat="43.6563" lon="7.04217">
        <ele>150.1030273</ele>
        <time>2012-05-17T08:25:06Z</time>
      </trkpt>
      <trkpt lat="43.65619" lon="7.04213">
        <ele>150.5836182</ele>
        <time>2012-05-17T08:25:11Z</time>
      </trkpt>
      <trkpt lat="43.65578" lon="7.04172">
        <ele>151.5449219</ele>
        <time>2012-05-17T08:25:37Z</time>
      </trkpt>
      <trkpt lat="43.65578" lon="7.0417">
        <ele>151.5449219</ele>
        <time>2012-05-17T08:25:38Z</time>
      </trkpt>
      <trkpt lat="43.65581" lon="7.04157">
        <ele>151.064209</ele>
        <time>2012-05-17T08:25:42Z</time>
      </trkpt>
      <trkpt lat="43.65581" lon="7.04121">
        <ele>151.5449219</ele>
        <time>2012-05-17T08:25:53Z</time>
      </trkpt>
      <trkpt lat="43.65551" lon="7.04125">
        <ele>152.9869385</ele>
        <time>2012-05-17T08:26:06Z</time>
      </trkpt>
      <trkpt lat="43.65533" lon="7.04099">
        <ele>151.5449219</ele>
        <time>2012-05-17T08:26:18Z</time>
      </trkpt>
      <trkpt lat="43.65536" lon="7.04054">
        <ele>150.5836182</ele>
        <time>2012-05-17T08:26:29Z</time>
      </trkpt>
      <trkpt lat="43.65516" lon="7.04022">
        <ele>150.5836182</ele>
        <time>2012-05-17T08:26:41Z</time>
      </trkpt>
      <trkpt lat="43.6548" lon="7.03985">
        <ele>151.5449219</ele>
        <time>2012-05-17T08:26:59Z</time>
      </trkpt>
      <trkpt lat="43.65452" lon="7.03947">
        <ele>152.0257568</ele>
        <time>2012-05-17T08:27:15Z</time>
      </trkpt>
      <trkpt lat="43.65452" lon="7.03943">
        <ele>152.0257568</ele>
        <time>2012-05-17T08:27:17Z</time>
      </trkpt>
      <trkpt lat="43.6545" lon="7.039">
        <ele>154.9095459</ele>
        <time>2012-05-17T08:27:32Z</time>
      </trkpt>
      <trkpt lat="43.65452" lon="7.03861">
        <ele>155.3902588</ele>
        <time>2012-05-17T08:27:48Z</time>
      </trkpt>
      <trkpt lat="43.65458" lon="7.0385">
        <ele>155.8709717</ele>
        <time>2012-05-17T08:27:52Z</time>
      </trkpt>
      <trkpt lat="43.65465" lon="7.0384">
        <ele>157.3128662</ele>
        <time>2012-05-17T08:27:59Z</time>
      </trkpt>
      <trkpt lat="43.65493" lon="7.0384">
        <ele>163.0808105</ele>
        <time>2012-05-17T08:28:22Z</time>
      </trkpt>
      <trkpt lat="43.6551" lon="7.0385">
        <ele>165.9647217</ele>
        <time>2012-05-17T08:28:40Z</time>
      </trkpt>
      <trkpt lat="43.65529" lon="7.03872">
        <ele>169.3294678</ele>
        <time>2012-05-17T08:28:57Z</time>
      </trkpt>
      <trkpt lat="43.65536" lon="7.03889">
        <ele>168.8487549</ele>
        <time>2012-05-17T08:29:05Z</time>
      </trkpt>
      <trkpt lat="43.65572" lon="7.039">
        <ele>169.3294678</ele>
        <time>2012-05-17T08:29:16Z</time>
      </trkpt>
      <trkpt lat="43.65623" lon="7.03906">
        <ele>170.2906494</ele>
        <time>2012-05-17T08:29:34Z</time>
      </trkpt>
      <trkpt lat="43.65703" lon="7.03895">
        <ele>174.1358643</ele>
        <time>2012-05-17T08:30:01Z</time>
      </trkpt>
      <trkpt lat="43.65741" lon="7.03882">
        <ele>175.5778809</ele>
        <time>2012-05-17T08:30:16Z</time>
      </trkpt>
      <trkpt lat="43.65778" lon="7.03887">
        <ele>175.5778809</ele>
        <time>2012-05-17T08:30:28Z</time>
      </trkpt>
      <trkpt lat="43.65829" lon="7.03865">
        <ele>177.0200195</ele>
        <time>2012-05-17T08:30:46Z</time>
      </trkpt>
      <trkpt lat="43.65853" lon="7.03859">
        <ele>177.0200195</ele>
        <time>2012-05-17T08:30:53Z</time>
      </trkpt>
      <trkpt lat="43.65864" lon="7.0385">
        <ele>177.0200195</ele>
        <time>2012-05-17T08:31:03Z</time>
      </trkpt>
      <trkpt lat="43.65872" lon="7.03844">
        <ele>176.0585938</ele>
        <time>2012-05-17T08:31:13Z</time>
      </trkpt>
      <trkpt lat="43.65896" lon="7.03794">
        <ele>176.0585938</ele>
        <time>2012-05-17T08:31:34Z</time>
      </trkpt>
      <trkpt lat="43.659" lon="7.03734">
        <ele>176.5393066</ele>
        <time>2012-05-17T08:31:53Z</time>
      </trkpt>
      <trkpt lat="43.65896" lon="7.03726">
        <ele>177.0200195</ele>
        <time>2012-05-17T08:31:57Z</time>
      </trkpt>
      <trkpt lat="43.65902" lon="7.03668">
        <ele>178.4619141</ele>
        <time>2012-05-17T08:32:17Z</time>
      </trkpt>
      <trkpt lat="43.65905" lon="7.03659">
        <ele>178.4619141</ele>
        <time>2012-05-17T08:32:20Z</time>
      </trkpt>
      <trkpt lat="43.65915" lon="7.03642">
        <ele>178.4619141</ele>
        <time>2012-05-17T08:32:27Z</time>
      </trkpt>
      <trkpt lat="43.65917" lon="7.03636">
        <ele>178.4619141</ele>
        <time>2012-05-17T08:32:30Z</time>
      </trkpt>
      <trkpt lat="43.65941" lon="7.03593">
        <ele>179.4232178</ele>
        <time>2012-05-17T08:32:46Z</time>
      </trkpt>
      <trkpt lat="43.65967" lon="7.03522">
        <ele>178.4619141</ele>
        <time>2012-05-17T08:33:05Z</time>
      </trkpt>
      <trkpt lat="43.65995" lon="7.03494">
        <ele>180.3845215</ele>
        <time>2012-05-17T08:33:18Z</time>
      </trkpt>
      <trkpt lat="43.65999" lon="7.03492">
        <ele>180.8652344</ele>
        <time>2012-05-17T08:33:21Z</time>
      </trkpt>
      <trkpt lat="43.66001" lon="7.03488">
        <ele>180.8652344</ele>
        <time>2012-05-17T08:33:34Z</time>
      </trkpt>
      <trkpt lat="43.66001" lon="7.03483">
        <ele>182.3071289</ele>
        <time>2012-05-17T08:35:04Z</time>
      </trkpt>
      <trkpt lat="43.66003" lon="7.03481">
        <ele>183.7490234</ele>
        <time>2012-05-17T08:37:17Z</time>
      </trkpt>
      <trkpt lat="43.66046" lon="7.03481">
        <ele>183.7490234</ele>
        <time>2012-05-17T08:37:36Z</time>
      </trkpt>
      <trkpt lat="43.66053" lon="7.03475">
        <ele>183.2684326</ele>
        <time>2012-05-17T08:37:38Z</time>
      </trkpt>
      <trkpt lat="43.66087" lon="7.03378">
        <ele>182.3071289</ele>
        <time>2012-05-17T08:37:54Z</time>
      </trkpt>
      <trkpt lat="43.66098" lon="7.03363">
        <ele>181.3458252</ele>
        <time>2012-05-17T08:38:02Z</time>
      </trkpt>
      <trkpt lat="43.661" lon="7.03355">
        <ele>180.8652344</ele>
        <time>2012-05-17T08:38:07Z</time>
      </trkpt>
      <trkpt lat="43.66108" lon="7.03357">
        <ele>181.826416</ele>
        <time>2012-05-17T08:38:17Z</time>
      </trkpt>
      <trkpt lat="43.66113" lon="7.03352">
        <ele>181.3458252</ele>
        <time>2012-05-17T08:38:19Z</time>
      </trkpt>
      <trkpt lat="43.6613" lon="7.03314">
        <ele>180.8652344</ele>
        <time>2012-05-17T08:38:37Z</time>
      </trkpt>
      <trkpt lat="43.66119" lon="7.0328">
        <ele>181.3458252</ele>
        <time>2012-05-17T08:38:46Z</time>
      </trkpt>
      <trkpt lat="43.66121" lon="7.03271">
        <ele>181.826416</ele>
        <time>2012-05-17T08:38:50Z</time>
      </trkpt>
      <trkpt lat="43.66108" lon="7.03211">
        <ele>181.826416</ele>
        <time>2012-05-17T08:39:14Z</time>
      </trkpt>
      <trkpt lat="43.661" lon="7.03151">
        <ele>179.9038086</ele>
        <time>2012-05-17T08:39:33Z</time>
      </trkpt>
      <trkpt lat="43.66093" lon="7.03138">
        <ele>180.8652344</ele>
        <time>2012-05-17T08:39:40Z</time>
      </trkpt>
      <trkpt lat="43.66104" lon="7.03082">
        <ele>184.2298584</ele>
        <time>2012-05-17T08:39:59Z</time>
      </trkpt>
      <trkpt lat="43.6613" lon="7.03033">
        <ele>184.7105713</ele>
        <time>2012-05-17T08:40:18Z</time>
      </trkpt>
      <trkpt lat="43.66166" lon="7.02992">
        <ele>185.6717529</ele>
        <time>2012-05-17T08:40:36Z</time>
      </trkpt>
      <trkpt lat="43.66207" lon="7.02932">
        <ele>186.1524658</ele>
        <time>2012-05-17T08:41:00Z</time>
      </trkpt>
      <trkpt lat="43.66252" lon="7.02898">
        <ele>188.5557861</ele>
        <time>2012-05-17T08:41:24Z</time>
      </trkpt>
      <trkpt lat="43.6631" lon="7.02865">
        <ele>189.9976807</ele>
        <time>2012-05-17T08:41:49Z</time>
      </trkpt>
      <trkpt lat="43.66321" lon="7.02865">
        <ele>189.9976807</ele>
        <time>2012-05-17T08:41:52Z</time>
      </trkpt>
      <trkpt lat="43.66332" lon="7.02859">
        <ele>190.4783936</ele>
        <time>2012-05-17T08:41:56Z</time>
      </trkpt>
      <trkpt lat="43.66347" lon="7.02803">
        <ele>194.3237305</ele>
        <time>2012-05-17T08:42:16Z</time>
      </trkpt>
      <trkpt lat="43.66353" lon="7.02756">
        <ele>197.2075195</ele>
        <time>2012-05-17T08:42:37Z</time>
      </trkpt>
      <trkpt lat="43.66377" lon="7.02749">
        <ele>201.5335693</ele>
        <time>2012-05-17T08:42:54Z</time>
      </trkpt>
      <trkpt lat="43.66398" lon="7.02767">
        <ele>202.494873</ele>
        <time>2012-05-17T08:43:11Z</time>
      </trkpt>
      <trkpt lat="43.66402" lon="7.0278">
        <ele>202.494873</ele>
        <time>2012-05-17T08:43:17Z</time>
      </trkpt>
      <trkpt lat="43.66409" lon="7.02784">
        <ele>202.9754639</ele>
        <time>2012-05-17T08:43:22Z</time>
      </trkpt>
      <trkpt lat="43.66413" lon="7.0278">
        <ele>203.4561768</ele>
        <time>2012-05-17T08:43:26Z</time>
      </trkpt>
      <trkpt lat="43.66413" lon="7.02743">
        <ele>202.494873</ele>
        <time>2012-05-17T08:43:45Z</time>
      </trkpt>
      <trkpt lat="43.66381" lon="7.02715">
        <ele>203.9368896</ele>
        <time>2012-05-17T08:44:04Z</time>
      </trkpt>
      <trkpt lat="43.66351" lon="7.02662">
        <ele>208.2628174</ele>
        <time>2012-05-17T08:44:33Z</time>
      </trkpt>
      <trkpt lat="43.66347" lon="7.02644">
        <ele>209.2241211</ele>
        <time>2012-05-17T08:44:41Z</time>
      </trkpt>
      <trkpt lat="43.66347" lon="7.02589">
        <ele>212.1080322</ele>
        <time>2012-05-17T08:45:03Z</time>
      </trkpt>
      <trkpt lat="43.66327" lon="7.02584">
        <ele>214.5112305</ele>
        <time>2012-05-17T08:45:16Z</time>
      </trkpt>
      <trkpt lat="43.66308" lon="7.02586">
        <ele>216.43396</ele>
        <time>2012-05-17T08:45:42Z</time>
      </trkpt>
      <trkpt lat="43.66312" lon="7.02582">
        <ele>226.527832</ele>
        <time>2012-05-17T08:47:22Z</time>
      </trkpt>
      <trkpt lat="43.66293" lon="7.02601">
        <ele>229.4117432</ele>
        <time>2012-05-17T08:47:38Z</time>
      </trkpt>
      <trkpt lat="43.6628" lon="7.02597">
        <ele>230.8537598</ele>
        <time>2012-05-17T08:47:50Z</time>
      </trkpt>
      <trkpt lat="43.66282" lon="7.02589">
        <ele>230.8537598</ele>
        <time>2012-05-17T08:47:54Z</time>
      </trkpt>
      <trkpt lat="43.66291" lon="7.02556">
        <ele>231.8149414</ele>
        <time>2012-05-17T08:48:10Z</time>
      </trkpt>
      <trkpt lat="43.66308" lon="7.02518">
        <ele>234.6990967</ele>
        <time>2012-05-17T08:48:30Z</time>
      </trkpt>
      <trkpt lat="43.66319" lon="7.02481">
        <ele>237.5828857</ele>
        <time>2012-05-17T08:48:47Z</time>
      </trkpt>
      <trkpt lat="43.66347" lon="7.02428">
        <ele>241.4282227</ele>
        <time>2012-05-17T08:49:19Z</time>
      </trkpt>
      <trkpt lat="43.66381" lon="7.024">
        <ele>243.831543</ele>
        <time>2012-05-17T08:49:45Z</time>
      </trkpt>
      <trkpt lat="43.66426" lon="7.02389">
        <ele>244.7928467</ele>
        <time>2012-05-17T08:50:08Z</time>
      </trkpt>
      <trkpt lat="43.66445" lon="7.02348">
        <ele>247.6767578</ele>
        <time>2012-05-17T08:50:25Z</time>
      </trkpt>
      <trkpt lat="43.66435" lon="7.02265">
        <ele>246.7154541</ele>
        <time>2012-05-17T08:50:49Z</time>
      </trkpt>
      <trkpt lat="43.66411" lon="7.02155">
        <ele>249.1187744</ele>
        <time>2012-05-17T08:51:17Z</time>
      </trkpt>
      <trkpt lat="43.66372" lon="7.02125">
        <ele>249.1187744</ele>
        <time>2012-05-17T08:51:35Z</time>
      </trkpt>
      <trkpt lat="43.66312" lon="7.02112">
        <ele>250.560791</ele>
        <time>2012-05-17T08:52:01Z</time>
      </trkpt>
      <trkpt lat="43.66306" lon="7.0211">
        <ele>250.560791</ele>
        <time>2012-05-17T08:52:04Z</time>
      </trkpt>
      <trkpt lat="43.66308" lon="7.02112">
        <ele>251.0413818</ele>
        <time>2012-05-17T08:52:06Z</time>
      </trkpt>
      <trkpt lat="43.6631" lon="7.02119">
        <ele>252.4833984</ele>
        <time>2012-05-17T08:52:18Z</time>
      </trkpt>
      <trkpt lat="43.66321" lon="7.02123">
        <ele>253.4447021</ele>
        <time>2012-05-17T08:52:32Z</time>
      </trkpt>
      <trkpt lat="43.66327" lon="7.02123">
        <ele>253.4447021</ele>
        <time>2012-05-17T08:52:37Z</time>
      </trkpt>
      <trkpt lat="43.66321" lon="7.02123">
        <ele>253.4447021</ele>
        <time>2012-05-17T08:52:42Z</time>
      </trkpt>
      <trkpt lat="43.66306" lon="7.02121">
        <ele>253.4447021</ele>
        <time>2012-05-17T08:52:50Z</time>
      </trkpt>
      <trkpt lat="43.66302" lon="7.0211">
        <ele>253.4447021</ele>
        <time>2012-05-17T08:52:58Z</time>
      </trkpt>
      <trkpt lat="43.66299" lon="7.02108">
        <ele>252.9639893</ele>
        <time>2012-05-17T08:53:00Z</time>
      </trkpt>
      <trkpt lat="43.66302" lon="7.02104">
        <ele>253.4447021</ele>
        <time>2012-05-17T08:53:03Z</time>
      </trkpt>
      <trkpt lat="43.66299" lon="7.02101">
        <ele>253.925415</ele>
        <time>2012-05-17T08:53:08Z</time>
      </trkpt>
      <trkpt lat="43.66299" lon="7.02108">
        <ele>254.4060059</ele>
        <time>2012-05-17T08:53:13Z</time>
      </trkpt>
      <trkpt lat="43.66308" lon="7.02116">
        <ele>254.8865967</ele>
        <time>2012-05-17T08:53:23Z</time>
      </trkpt>
      <trkpt lat="43.66299" lon="7.02065">
        <ele>253.925415</ele>
        <time>2012-05-17T08:53:39Z</time>
      </trkpt>
      <trkpt lat="43.66276" lon="7.0199">
        <ele>253.925415</ele>
        <time>2012-05-17T08:54:03Z</time>
      </trkpt>
      <trkpt lat="43.66205" lon="7.01915">
        <ele>255.3673096</ele>
        <time>2012-05-17T08:54:35Z</time>
      </trkpt>
      <trkpt lat="43.6616" lon="7.01846">
        <ele>255.8480225</ele>
        <time>2012-05-17T08:54:56Z</time>
      </trkpt>
      <trkpt lat="43.66153" lon="7.0179">
        <ele>257.2900391</ele>
        <time>2012-05-17T08:55:09Z</time>
      </trkpt>
      <trkpt lat="43.66186" lon="7.01683">
        <ele>260.1739502</ele>
        <time>2012-05-17T08:55:37Z</time>
      </trkpt>
      <trkpt lat="43.66181" lon="7.01642">
        <ele>260.654541</ele>
        <time>2012-05-17T08:55:47Z</time>
      </trkpt>
      <trkpt lat="43.66164" lon="7.01634">
        <ele>261.6159668</ele>
        <time>2012-05-17T08:55:53Z</time>
      </trkpt>
      <trkpt lat="43.66119" lon="7.01606">
        <ele>259.2126465</ele>
        <time>2012-05-17T08:56:10Z</time>
      </trkpt>
      <trkpt lat="43.66085" lon="7.01582">
        <ele>258.7319336</ele>
        <time>2012-05-17T08:56:26Z</time>
      </trkpt>
      <trkpt lat="43.66083" lon="7.01578">
        <ele>266.9031982</ele>
        <time>2012-05-17T08:57:38Z</time>
      </trkpt>
      <trkpt lat="43.66046" lon="7.01571">
        <ele>265.4613037</ele>
        <time>2012-05-17T08:57:53Z</time>
      </trkpt>
      <trkpt lat="43.65999" lon="7.01574">
        <ele>266.4224854</ele>
        <time>2012-05-17T08:58:10Z</time>
      </trkpt>
      <trkpt lat="43.6601" lon="7.01505">
        <ele>267.3839111</ele>
        <time>2012-05-17T08:58:21Z</time>
      </trkpt>
      <trkpt lat="43.66025" lon="7.01445">
        <ele>267.864502</ele>
        <time>2012-05-17T08:58:28Z</time>
      </trkpt>
      <trkpt lat="43.66033" lon="7.014">
        <ele>267.864502</ele>
        <time>2012-05-17T08:58:36Z</time>
      </trkpt>
      <trkpt lat="43.66042" lon="7.01355">
        <ele>269.7871094</ele>
        <time>2012-05-17T08:58:52Z</time>
      </trkpt>
      <trkpt lat="43.66044" lon="7.01353">
        <ele>268.3450928</ele>
        <time>2012-05-17T08:59:16Z</time>
      </trkpt>
      <trkpt lat="43.66046" lon="7.01353">
        <ele>268.8258057</ele>
        <time>2012-05-17T08:59:44Z</time>
      </trkpt>
      <trkpt lat="43.66057" lon="7.01301">
        <ele>268.3450928</ele>
        <time>2012-05-17T09:00:09Z</time>
      </trkpt>
      <trkpt lat="43.66074" lon="7.0122">
        <ele>270.2677002</ele>
        <time>2012-05-17T09:00:39Z</time>
      </trkpt>
      <trkpt lat="43.66096" lon="7.01147">
        <ele>272.1904297</ele>
        <time>2012-05-17T09:01:08Z</time>
      </trkpt>
      <trkpt lat="43.66113" lon="7.01093">
        <ele>272.6711426</ele>
        <time>2012-05-17T09:01:35Z</time>
      </trkpt>
      <trkpt lat="43.66121" lon="7.01072">
        <ele>272.1904297</ele>
        <time>2012-05-17T09:01:58Z</time>
      </trkpt>
      <trkpt lat="43.6613" lon="7.01059">
        <ele>274.1130371</ele>
        <time>2012-05-17T09:02:16Z</time>
      </trkpt>
      <trkpt lat="43.66132" lon="7.01052">
        <ele>276.0356445</ele>
        <time>2012-05-17T09:02:29Z</time>
      </trkpt>
      <trkpt lat="43.66136" lon="7.01048">
        <ele>278.9196777</ele>
        <time>2012-05-17T09:02:42Z</time>
      </trkpt>
      <trkpt lat="43.66147" lon="7.01037">
        <ele>278.4389648</ele>
        <time>2012-05-17T09:03:01Z</time>
      </trkpt>
      <trkpt lat="43.66156" lon="7.01029">
        <ele>281.322998</ele>
        <time>2012-05-17T09:03:19Z</time>
      </trkpt>
      <trkpt lat="43.66162" lon="7.01022">
        <ele>281.8035889</ele>
        <time>2012-05-17T09:03:33Z</time>
      </trkpt>
      <trkpt lat="43.66175" lon="7.01016">
        <ele>282.2843018</ele>
        <time>2012-05-17T09:03:52Z</time>
      </trkpt>
      <trkpt lat="43.66177" lon="7.01014">
        <ele>282.2843018</ele>
        <time>2012-05-17T09:03:54Z</time>
      </trkpt>
      <trkpt lat="43.66179" lon="7.01009">
        <ele>282.2843018</ele>
        <time>2012-05-17T09:03:56Z</time>
      </trkpt>
      <trkpt lat="43.66188" lon="7.01007">
        <ele>282.7650146</ele>
        <time>2012-05-17T09:04:09Z</time>
      </trkpt>
      <trkpt lat="43.66207" lon="7.01014">
        <ele>280.8424072</ele>
        <time>2012-05-17T09:04:23Z</time>
      </trkpt>
      <trkpt lat="43.66231" lon="7.00986">
        <ele>279.4002686</ele>
        <time>2012-05-17T09:04:41Z</time>
      </trkpt>
      <trkpt lat="43.66259" lon="7.00973">
        <ele>276.5163574</ele>
        <time>2012-05-17T09:04:57Z</time>
      </trkpt>
      <trkpt lat="43.66263" lon="7.00969">
        <ele>276.5163574</ele>
        <time>2012-05-17T09:04:59Z</time>
      </trkpt>
      <trkpt lat="43.66269" lon="7.00958">
        <ele>276.9970703</ele>
        <time>2012-05-17T09:05:02Z</time>
      </trkpt>
      <trkpt lat="43.66276" lon="7.00958">
        <ele>276.9970703</ele>
        <time>2012-05-17T09:05:04Z</time>
      </trkpt>
      <trkpt lat="43.66282" lon="7.00964">
        <ele>276.9970703</ele>
        <time>2012-05-17T09:05:06Z</time>
      </trkpt>
      <trkpt lat="43.66299" lon="7.00981">
        <ele>276.0356445</ele>
        <time>2012-05-17T09:05:10Z</time>
      </trkpt>
      <trkpt lat="43.66308" lon="7.00986">
        <ele>276.0356445</ele>
        <time>2012-05-17T09:05:12Z</time>
      </trkpt>
      <trkpt lat="43.66325" lon="7.00988">
        <ele>276.5163574</ele>
        <time>2012-05-17T09:05:16Z</time>
      </trkpt>
      <trkpt lat="43.66362" lon="7.01029">
        <ele>276.9970703</ele>
        <time>2012-05-17T09:05:30Z</time>
      </trkpt>
      <trkpt lat="43.66432" lon="7.01087">
        <ele>281.8035889</ele>
        <time>2012-05-17T09:05:54Z</time>
      </trkpt>
      <trkpt lat="43.66439" lon="7.01091">
        <ele>281.8035889</ele>
        <time>2012-05-17T09:05:56Z</time>
      </trkpt>
      <trkpt lat="43.66452" lon="7.01091">
        <ele>279.8808594</ele>
        <time>2012-05-17T09:06:02Z</time>
      </trkpt>
      <trkpt lat="43.66477" lon="7.01093">
        <ele>276.0356445</ele>
        <time>2012-05-17T09:06:23Z</time>
      </trkpt>
      <trkpt lat="43.66486" lon="7.01095">
        <ele>275.0744629</ele>
        <time>2012-05-17T09:06:38Z</time>
      </trkpt>
      <trkpt lat="43.66497" lon="7.01108">
        <ele>275.0744629</ele>
        <time>2012-05-17T09:06:53Z</time>
      </trkpt>
      <trkpt lat="43.66512" lon="7.0111">
        <ele>273.6324463</ele>
        <time>2012-05-17T09:07:12Z</time>
      </trkpt>
      <trkpt lat="43.66523" lon="7.01108">
        <ele>271.7097168</ele>
        <time>2012-05-17T09:07:30Z</time>
      </trkpt>
      <trkpt lat="43.66525" lon="7.01104">
        <ele>271.7097168</ele>
        <time>2012-05-17T09:07:34Z</time>
      </trkpt>
      <trkpt lat="43.6654" lon="7.01106">
        <ele>271.7097168</ele>
        <time>2012-05-17T09:07:46Z</time>
      </trkpt>
      <trkpt lat="43.66553" lon="7.01095">
        <ele>271.7097168</ele>
        <time>2012-05-17T09:07:58Z</time>
      </trkpt>
      <trkpt lat="43.66561" lon="7.01093">
        <ele>270.7484131</ele>
        <time>2012-05-17T09:08:21Z</time>
      </trkpt>
      <trkpt lat="43.66596" lon="7.01095">
        <ele>271.229126</ele>
        <time>2012-05-17T09:08:37Z</time>
      </trkpt>
      <trkpt lat="43.66651" lon="7.01093">
        <ele>271.7097168</ele>
        <time>2012-05-17T09:08:58Z</time>
      </trkpt>
      <trkpt lat="43.66656" lon="7.01099">
        <ele>271.7097168</ele>
        <time>2012-05-17T09:09:02Z</time>
      </trkpt>
      <trkpt lat="43.6666" lon="7.01108">
        <ele>272.6711426</ele>
        <time>2012-05-17T09:09:07Z</time>
      </trkpt>
      <trkpt lat="43.66658" lon="7.01136">
        <ele>273.1518555</ele>
        <time>2012-05-17T09:09:19Z</time>
      </trkpt>
      <trkpt lat="43.66649" lon="7.01155">
        <ele>275.5550537</ele>
        <time>2012-05-17T09:09:31Z</time>
      </trkpt>
      <trkpt lat="43.66608" lon="7.01198">
        <ele>277.4776611</ele>
        <time>2012-05-17T09:10:02Z</time>
      </trkpt>
      <trkpt lat="43.66576" lon="7.01245">
        <ele>281.322998</ele>
        <time>2012-05-17T09:10:33Z</time>
      </trkpt>
      <trkpt lat="43.6658" lon="7.01254">
        <ele>282.2843018</ele>
        <time>2012-05-17T09:10:47Z</time>
      </trkpt>
      <trkpt lat="43.66585" lon="7.01256">
        <ele>282.7650146</ele>
        <time>2012-05-17T09:11:05Z</time>
      </trkpt>
      <trkpt lat="43.66593" lon="7.01256">
        <ele>281.8035889</ele>
        <time>2012-05-17T09:11:21Z</time>
      </trkpt>
      <trkpt lat="43.66638" lon="7.0125">
        <ele>281.8035889</ele>
        <time>2012-05-17T09:11:51Z</time>
      </trkpt>
      <trkpt lat="43.66699" lon="7.01254">
        <ele>283.7261963</ele>
        <time>2012-05-17T09:12:24Z</time>
      </trkpt>
      <trkpt lat="43.66714" lon="7.01252">
        <ele>283.7261963</ele>
        <time>2012-05-17T09:12:32Z</time>
      </trkpt>
      <trkpt lat="43.6672" lon="7.01235">
        <ele>285.1682129</ele>
        <time>2012-05-17T09:12:42Z</time>
      </trkpt>
      <trkpt lat="43.66737" lon="7.01175">
        <ele>289.4941406</ele>
        <time>2012-05-17T09:13:14Z</time>
      </trkpt>
      <trkpt lat="43.66752" lon="7.01125">
        <ele>293.3393555</ele>
        <time>2012-05-17T09:13:46Z</time>
      </trkpt>
      <trkpt lat="43.66756" lon="7.01123">
        <ele>293.8200684</ele>
        <time>2012-05-17T09:13:52Z</time>
      </trkpt>
      <trkpt lat="43.66795" lon="7.01144">
        <ele>292.3781738</ele>
        <time>2012-05-17T09:14:19Z</time>
      </trkpt>
      <trkpt lat="43.66864" lon="7.01142">
        <ele>294.7813721</ele>
        <time>2012-05-17T09:14:52Z</time>
      </trkpt>
      <trkpt lat="43.66907" lon="7.01125">
        <ele>296.7041016</ele>
        <time>2012-05-17T09:15:13Z</time>
      </trkpt>
      <trkpt lat="43.66967" lon="7.01091">
        <ele>302.4719238</ele>
        <time>2012-05-17T09:15:41Z</time>
      </trkpt>
      <trkpt lat="43.67044" lon="7.01048">
        <ele>305.8366699</ele>
        <time>2012-05-17T09:16:14Z</time>
      </trkpt>
      <trkpt lat="43.67057" lon="7.01037">
        <ele>311.1237793</ele>
        <time>2012-05-17T09:17:23Z</time>
      </trkpt>
      <trkpt lat="43.6707" lon="7.01011">
        <ele>314.4884033</ele>
        <time>2012-05-17T09:17:53Z</time>
      </trkpt>
      <trkpt lat="43.67076" lon="7.00964">
        <ele>319.2950439</ele>
        <time>2012-05-17T09:18:12Z</time>
      </trkpt>
      <trkpt lat="43.67095" lon="7.00915">
        <ele>321.6983643</ele>
        <time>2012-05-17T09:18:32Z</time>
      </trkpt>
      <trkpt lat="43.6711" lon="7.00881">
        <ele>322.1789551</ele>
        <time>2012-05-17T09:18:47Z</time>
      </trkpt>
      <trkpt lat="43.6711" lon="7.00808">
        <ele>322.659668</ele>
        <time>2012-05-17T09:19:03Z</time>
      </trkpt>
      <trkpt lat="43.67115" lon="7.00713">
        <ele>325.0629883</ele>
        <time>2012-05-17T09:19:24Z</time>
      </trkpt>
      <trkpt lat="43.67095" lon="7.0064">
        <ele>324.1015625</ele>
        <time>2012-05-17T09:19:35Z</time>
      </trkpt>
      <trkpt lat="43.67085" lon="7.00608">
        <ele>324.1015625</ele>
        <time>2012-05-17T09:19:42Z</time>
      </trkpt>
      <trkpt lat="43.67068" lon="7.00569">
        <ele>323.6209717</ele>
        <time>2012-05-17T09:19:50Z</time>
      </trkpt>
      <trkpt lat="43.67072" lon="7.00533">
        <ele>322.659668</ele>
        <time>2012-05-17T09:19:59Z</time>
      </trkpt>
      <trkpt lat="43.67095" lon="7.00537">
        <ele>322.659668</ele>
        <time>2012-05-17T09:20:11Z</time>
      </trkpt>
      <trkpt lat="43.67095" lon="7.00537">
        <ele>322.659668</ele>
        <time>2012-05-17T09:20:12Z</time>
      </trkpt>
      <trkpt lat="43.67102" lon="7.00544">
        <ele>322.1789551</ele>
        <time>2012-05-17T09:20:16Z</time>
      </trkpt>
      <trkpt lat="43.67117" lon="7.00567">
        <ele>321.6983643</ele>
        <time>2012-05-17T09:20:23Z</time>
      </trkpt>
      <trkpt lat="43.67136" lon="7.00557">
        <ele>320.2563477</ele>
        <time>2012-05-17T09:20:28Z</time>
      </trkpt>
      <trkpt lat="43.67196" lon="7.00486">
        <ele>315.4498291</ele>
        <time>2012-05-17T09:20:39Z</time>
      </trkpt>
      <trkpt lat="43.67198" lon="7.00484">
        <ele>315.4498291</ele>
        <time>2012-05-17T09:20:41Z</time>
      </trkpt>
      <trkpt lat="43.67205" lon="7.00488">
        <ele>315.4498291</ele>
        <time>2012-05-17T09:20:46Z</time>
      </trkpt>
      <trkpt lat="43.67226" lon="7.00499">
        <ele>314.4884033</ele>
        <time>2012-05-17T09:20:54Z</time>
      </trkpt>
      <trkpt lat="43.67256" lon="7.00494">
        <ele>312.5657959</ele>
        <time>2012-05-17T09:21:01Z</time>
      </trkpt>
      <trkpt lat="43.67271" lon="7.00507">
        <ele>312.5657959</ele>
        <time>2012-05-17T09:21:05Z</time>
      </trkpt>
      <trkpt lat="43.67293" lon="7.00565">
        <ele>313.0465088</ele>
        <time>2012-05-17T09:21:19Z</time>
      </trkpt>
      <trkpt lat="43.67297" lon="7.00578">
        <ele>312.0852051</ele>
        <time>2012-05-17T09:21:28Z</time>
      </trkpt>
      <trkpt lat="43.67308" lon="7.00629">
        <ele>312.0852051</ele>
        <time>2012-05-17T09:21:43Z</time>
      </trkpt>
      <trkpt lat="43.67312" lon="7.00647">
        <ele>311.6044922</ele>
        <time>2012-05-17T09:21:47Z</time>
      </trkpt>
      <trkpt lat="43.67306" lon="7.00666">
        <ele>312.0852051</ele>
        <time>2012-05-17T09:21:52Z</time>
      </trkpt>
      <trkpt lat="43.67304" lon="7.00668">
        <ele>312.0852051</ele>
        <time>2012-05-17T09:21:54Z</time>
      </trkpt>
      <trkpt lat="43.67323" lon="7.00711">
        <ele>312.0852051</ele>
        <time>2012-05-17T09:22:09Z</time>
      </trkpt>
      <trkpt lat="43.67336" lon="7.0073">
        <ele>312.0852051</ele>
        <time>2012-05-17T09:22:26Z</time>
      </trkpt>
      <trkpt lat="43.67353" lon="7.00747">
        <ele>309.2011719</ele>
        <time>2012-05-17T09:22:35Z</time>
      </trkpt>
      <trkpt lat="43.67383" lon="7.00743">
        <ele>306.3172607</ele>
        <time>2012-05-17T09:22:49Z</time>
      </trkpt>
      <trkpt lat="43.67387" lon="7.00741">
        <ele>305.8366699</ele>
        <time>2012-05-17T09:22:52Z</time>
      </trkpt>
      <trkpt lat="43.67404" lon="7.00728">
        <ele>305.8366699</ele>
        <time>2012-05-17T09:23:14Z</time>
      </trkpt>
      <trkpt lat="43.67404" lon="7.00722">
        <ele>305.8366699</ele>
        <time>2012-05-17T09:23:27Z</time>
      </trkpt>
      <trkpt lat="43.67409" lon="7.00717">
        <ele>305.355957</ele>
        <time>2012-05-17T09:23:46Z</time>
      </trkpt>
      <trkpt lat="43.67415" lon="7.00711">
        <ele>305.355957</ele>
        <time>2012-05-17T09:23:55Z</time>
      </trkpt>
      <trkpt lat="43.67417" lon="7.007">
        <ele>304.8752441</ele>
        <time>2012-05-17T09:24:01Z</time>
      </trkpt>
      <trkpt lat="43.67426" lon="7.00696">
        <ele>304.8752441</ele>
        <time>2012-05-17T09:24:08Z</time>
      </trkpt>
      <trkpt lat="43.6743" lon="7.00694">
        <ele>304.8752441</ele>
        <time>2012-05-17T09:24:12Z</time>
      </trkpt>
      <trkpt lat="43.67435" lon="7.00687">
        <ele>304.8752441</ele>
        <time>2012-05-17T09:24:17Z</time>
      </trkpt>
      <trkpt lat="43.67447" lon="7.00677">
        <ele>304.8752441</ele>
        <time>2012-05-17T09:24:31Z</time>
      </trkpt>
      <trkpt lat="43.6745" lon="7.00672">
        <ele>304.8752441</ele>
        <time>2012-05-17T09:24:35Z</time>
      </trkpt>
      <trkpt lat="43.6745" lon="7.00666">
        <ele>304.8752441</ele>
        <time>2012-05-17T09:24:38Z</time>
      </trkpt>
      <trkpt lat="43.67443" lon="7.00647">
        <ele>305.355957</ele>
        <time>2012-05-17T09:24:54Z</time>
      </trkpt>
      <trkpt lat="43.67456" lon="7.00644">
        <ele>306.3172607</ele>
        <time>2012-05-17T09:25:07Z</time>
      </trkpt>
      <trkpt lat="43.67456" lon="7.0064">
        <ele>306.7978516</ele>
        <time>2012-05-17T09:25:13Z</time>
      </trkpt>
      <trkpt lat="43.67454" lon="7.00632">
        <ele>306.7978516</ele>
        <time>2012-05-17T09:25:21Z</time>
      </trkpt>
      <trkpt lat="43.67458" lon="7.00629">
        <ele>307.2785645</ele>
        <time>2012-05-17T09:25:31Z</time>
      </trkpt>
      <trkpt lat="43.67475" lon="7.00621">
        <ele>307.7592773</ele>
        <time>2012-05-17T09:25:42Z</time>
      </trkpt>
      <trkpt lat="43.6749" lon="7.00617">
        <ele>309.2011719</ele>
        <time>2012-05-17T09:25:50Z</time>
      </trkpt>
      <trkpt lat="43.67495" lon="7.00559">
        <ele>312.0852051</ele>
        <time>2012-05-17T09:26:13Z</time>
      </trkpt>
      <trkpt lat="43.67488" lon="7.00511">
        <ele>314.0078125</ele>
        <time>2012-05-17T09:26:32Z</time>
      </trkpt>
      <trkpt lat="43.67462" lon="7.00475">
        <ele>314.4884033</ele>
        <time>2012-05-17T09:26:51Z</time>
      </trkpt>
      <trkpt lat="43.67467" lon="7.00436">
        <ele>317.3724365</ele>
        <time>2012-05-17T09:27:08Z</time>
      </trkpt>
      <trkpt lat="43.67492" lon="7.00404">
        <ele>320.7370605</ele>
        <time>2012-05-17T09:27:32Z</time>
      </trkpt>
      <trkpt lat="43.67507" lon="7.00372">
        <ele>326.0241699</ele>
        <time>2012-05-17T09:27:53Z</time>
      </trkpt>
      <trkpt lat="43.67525" lon="7.0034">
        <ele>330.3502197</ele>
        <time>2012-05-17T09:28:14Z</time>
      </trkpt>
      <trkpt lat="43.67544" lon="7.00308">
        <ele>332.75354</ele>
        <time>2012-05-17T09:28:34Z</time>
      </trkpt>
      <trkpt lat="43.67568" lon="7.00288">
        <ele>333.7147217</ele>
        <time>2012-05-17T09:28:52Z</time>
      </trkpt>
      <trkpt lat="43.676" lon="7.00269">
        <ele>335.6373291</ele>
        <time>2012-05-17T09:29:13Z</time>
      </trkpt>
      <trkpt lat="43.67625" lon="7.00284">
        <ele>338.0407715</ele>
        <time>2012-05-17T09:29:30Z</time>
      </trkpt>
      <trkpt lat="43.67656" lon="7.0034">
        <ele>338.5214844</ele>
        <time>2012-05-17T09:29:50Z</time>
      </trkpt>
      <trkpt lat="43.67681" lon="7.00391">
        <ele>340.9246826</ele>
        <time>2012-05-17T09:30:11Z</time>
      </trkpt>
      <trkpt lat="43.67703" lon="7.00428">
        <ele>342.3666992</ele>
        <time>2012-05-17T09:30:30Z</time>
      </trkpt>
      <trkpt lat="43.67741" lon="7.00443">
        <ele>343.8085938</ele>
        <time>2012-05-17T09:30:58Z</time>
      </trkpt>
      <trkpt lat="43.67743" lon="7.00445">
        <ele>344.2894287</ele>
        <time>2012-05-17T09:31:01Z</time>
      </trkpt>
      <trkpt lat="43.67748" lon="7.00443">
        <ele>346.2120361</ele>
        <time>2012-05-17T09:31:21Z</time>
      </trkpt>
      <trkpt lat="43.6775" lon="7.00445">
        <ele>346.692627</ele>
        <time>2012-05-17T09:31:28Z</time>
      </trkpt>
      <trkpt lat="43.67748" lon="7.0043">
        <ele>348.1346436</ele>
        <time>2012-05-17T09:31:37Z</time>
      </trkpt>
      <trkpt lat="43.67748" lon="7.00428">
        <ele>348.6152344</ele>
        <time>2012-05-17T09:31:38Z</time>
      </trkpt>
      <trkpt lat="43.67741" lon="7.00378">
        <ele>351.4991455</ele>
        <time>2012-05-17T09:31:55Z</time>
      </trkpt>
      <trkpt lat="43.67741" lon="7.00331">
        <ele>353.9025879</ele>
        <time>2012-05-17T09:32:14Z</time>
      </trkpt>
      <trkpt lat="43.67735" lon="7.00312">
        <ele>354.3831787</ele>
        <time>2012-05-17T09:32:35Z</time>
      </trkpt>
      <trkpt lat="43.67724" lon="7.00271">
        <ele>358.2283936</ele>
        <time>2012-05-17T09:32:53Z</time>
      </trkpt>
      <trkpt lat="43.67716" lon="7.00213">
        <ele>360.6317139</ele>
        <time>2012-05-17T09:33:16Z</time>
      </trkpt>
      <trkpt lat="43.67718" lon="7.00164">
        <ele>362.0737305</ele>
        <time>2012-05-17T09:33:31Z</time>
      </trkpt>
      <trkpt lat="43.67728" lon="7.00093">
        <ele>363.9963379</ele>
        <time>2012-05-17T09:33:55Z</time>
      </trkpt>
      <trkpt lat="43.6775" lon="7.00029">
        <ele>364.4769287</ele>
        <time>2012-05-17T09:34:14Z</time>
      </trkpt>
      <trkpt lat="43.67786" lon="6.99924">
        <ele>361.1124268</ele>
        <time>2012-05-17T09:34:38Z</time>
      </trkpt>
      <trkpt lat="43.67795" lon="6.99885">
        <ele>362.0737305</ele>
        <time>2012-05-17T09:34:49Z</time>
      </trkpt>
      <trkpt lat="43.67799" lon="6.99876">
        <ele>362.0737305</ele>
        <time>2012-05-17T09:34:57Z</time>
      </trkpt>
      <trkpt lat="43.67797" lon="6.99876">
        <ele>375.5321045</ele>
        <time>2012-05-17T09:40:47Z</time>
      </trkpt>
      <trkpt lat="43.67801" lon="6.99878">
        <ele>376.0128174</ele>
        <time>2012-05-17T09:41:01Z</time>
      </trkpt>
      <trkpt lat="43.67801" lon="6.99878">
        <ele>375.5321045</ele>
        <time>2012-05-17T09:41:03Z</time>
      </trkpt>
      <trkpt lat="43.67827" lon="6.9987">
        <ele>374.0900879</ele>
        <time>2012-05-17T09:41:12Z</time>
      </trkpt>
      <trkpt lat="43.67883" lon="6.99823">
        <ele>372.6481934</ele>
        <time>2012-05-17T09:41:28Z</time>
      </trkpt>
      <trkpt lat="43.67902" lon="6.99829">
        <ele>371.6868896</ele>
        <time>2012-05-17T09:41:35Z</time>
      </trkpt>
      <trkpt lat="43.67949" lon="6.99859">
        <ele>371.6868896</ele>
        <time>2012-05-17T09:41:59Z</time>
      </trkpt>
      <trkpt lat="43.68001" lon="6.99876">
        <ele>371.6868896</ele>
        <time>2012-05-17T09:42:22Z</time>
      </trkpt>
      <trkpt lat="43.6807" lon="6.99851">
        <ele>368.3222656</ele>
        <time>2012-05-17T09:42:49Z</time>
      </trkpt>
      <trkpt lat="43.6813" lon="6.99818">
        <ele>366.880249</ele>
        <time>2012-05-17T09:43:13Z</time>
      </trkpt>
      <trkpt lat="43.68132" lon="6.99818">
        <ele>366.880249</ele>
        <time>2012-05-17T09:43:15Z</time>
      </trkpt>
      <trkpt lat="43.68128" lon="6.99816">
        <ele>364.4769287</ele>
        <time>2012-05-17T09:43:25Z</time>
      </trkpt>
      <trkpt lat="43.68125" lon="6.99818">
        <ele>364.4769287</ele>
        <time>2012-05-17T09:43:26Z</time>
      </trkpt>
      <trkpt lat="43.68117" lon="6.99876">
        <ele>361.1124268</ele>
        <time>2012-05-17T09:43:44Z</time>
      </trkpt>
      <trkpt lat="43.68102" lon="6.99936">
        <ele>360.6317139</ele>
        <time>2012-05-17T09:44:02Z</time>
      </trkpt>
      <trkpt lat="43.68102" lon="6.99943">
        <ele>360.6317139</ele>
        <time>2012-05-17T09:44:07Z</time>
      </trkpt>
      <trkpt lat="43.68078" lon="6.99977">
        <ele>359.1896973</ele>
        <time>2012-05-17T09:44:23Z</time>
      </trkpt>
      <trkpt lat="43.68046" lon="7.00035">
        <ele>355.8251953</ele>
        <time>2012-05-17T09:44:44Z</time>
      </trkpt>
      <trkpt lat="43.68016" lon="7.00082">
        <ele>354.8637695</ele>
        <time>2012-05-17T09:45:11Z</time>
      </trkpt>
      <trkpt lat="43.68003" lon="7.0013">
        <ele>358.2283936</ele>
        <time>2012-05-17T09:45:35Z</time>
      </trkpt>
      <trkpt lat="43.67992" lon="7.00172">
        <ele>358.7089844</ele>
        <time>2012-05-17T09:45:56Z</time>
      </trkpt>
      <trkpt lat="43.68003" lon="7.00213">
        <ele>360.151123</ele>
        <time>2012-05-17T09:46:15Z</time>
      </trkpt>
      <trkpt lat="43.68018" lon="7.00256">
        <ele>362.0737305</ele>
        <time>2012-05-17T09:46:32Z</time>
      </trkpt>
      <trkpt lat="43.6805" lon="7.00312">
        <ele>363.9963379</ele>
        <time>2012-05-17T09:46:54Z</time>
      </trkpt>
      <trkpt lat="43.68087" lon="7.00333">
        <ele>363.5157471</ele>
        <time>2012-05-17T09:47:08Z</time>
      </trkpt>
      <trkpt lat="43.68106" lon="7.00346">
        <ele>363.0350342</ele>
        <time>2012-05-17T09:47:14Z</time>
      </trkpt>
      <trkpt lat="43.68162" lon="7.00372">
        <ele>365.4383545</ele>
        <time>2012-05-17T09:47:30Z</time>
      </trkpt>
      <trkpt lat="43.68198" lon="7.00389">
        <ele>368.3222656</ele>
        <time>2012-05-17T09:47:47Z</time>
      </trkpt>
      <trkpt lat="43.68228" lon="7.0043">
        <ele>370.244873</ele>
        <time>2012-05-17T09:48:04Z</time>
      </trkpt>
      <trkpt lat="43.6825" lon="7.00475">
        <ele>373.1289063</ele>
        <time>2012-05-17T09:48:20Z</time>
      </trkpt>
      <trkpt lat="43.68258" lon="7.00477">
        <ele>373.6094971</ele>
        <time>2012-05-17T09:48:25Z</time>
      </trkpt>
      <trkpt lat="43.68282" lon="7.00436">
        <ele>376.9742432</ele>
        <time>2012-05-17T09:48:44Z</time>
      </trkpt>
      <trkpt lat="43.68301" lon="7.00383">
        <ele>378.8968506</ele>
        <time>2012-05-17T09:49:03Z</time>
      </trkpt>
      <trkpt lat="43.68314" lon="7.00331">
        <ele>381.7806396</ele>
        <time>2012-05-17T09:49:21Z</time>
      </trkpt>
      <trkpt lat="43.68331" lon="7.00282">
        <ele>384.6647949</ele>
        <time>2012-05-17T09:49:40Z</time>
      </trkpt>
      <trkpt lat="43.68342" lon="7.00248">
        <ele>388.0292969</ele>
        <time>2012-05-17T09:49:55Z</time>
      </trkpt>
      <trkpt lat="43.68368" lon="7.00217">
        <ele>392.8359375</ele>
        <time>2012-05-17T09:50:14Z</time>
      </trkpt>
      <trkpt lat="43.68398" lon="7.00202">
        <ele>395.7198486</ele>
        <time>2012-05-17T09:50:32Z</time>
      </trkpt>
      <trkpt lat="43.68426" lon="7.00205">
        <ele>398.1231689</ele>
        <time>2012-05-17T09:50:49Z</time>
      </trkpt>
      <trkpt lat="43.68454" lon="7.00233">
        <ele>401.9685059</ele>
        <time>2012-05-17T09:51:08Z</time>
      </trkpt>
      <trkpt lat="43.68488" lon="7.00256">
        <ele>403.8911133</ele>
        <time>2012-05-17T09:51:27Z</time>
      </trkpt>
      <trkpt lat="43.6852" lon="7.00271">
        <ele>406.7749023</ele>
        <time>2012-05-17T09:51:42Z</time>
      </trkpt>
      <trkpt lat="43.68561" lon="7.0029">
        <ele>408.6976318</ele>
        <time>2012-05-17T09:52:02Z</time>
      </trkpt>
      <trkpt lat="43.68589" lon="7.00303">
        <ele>411.581665</ele>
        <time>2012-05-17T09:52:18Z</time>
      </trkpt>
      <trkpt lat="43.68619" lon="7.0031">
        <ele>414.4654541</ele>
        <time>2012-05-17T09:52:36Z</time>
      </trkpt>
      <trkpt lat="43.68638" lon="7.0029">
        <ele>417.3496094</ele>
        <time>2012-05-17T09:52:51Z</time>
      </trkpt>
      <trkpt lat="43.68628" lon="7.00256">
        <ele>418.310791</ele>
        <time>2012-05-17T09:53:06Z</time>
      </trkpt>
      <trkpt lat="43.68613" lon="7.00209">
        <ele>421.1948242</ele>
        <time>2012-05-17T09:53:26Z</time>
      </trkpt>
      <trkpt lat="43.686" lon="7.00168">
        <ele>424.0787354</ele>
        <time>2012-05-17T09:53:43Z</time>
      </trkpt>
      <trkpt lat="43.68589" lon="7.00114">
        <ele>426.0013428</ele>
        <time>2012-05-17T09:54:04Z</time>
      </trkpt>
      <trkpt lat="43.68587" lon="7.00106">
        <ele>426.0013428</ele>
        <time>2012-05-17T09:54:07Z</time>
      </trkpt>
      <trkpt lat="43.686" lon="7.00102">
        <ele>426.9627686</ele>
        <time>2012-05-17T09:54:14Z</time>
      </trkpt>
      <trkpt lat="43.68632" lon="7.00125">
        <ele>431.2885742</ele>
        <time>2012-05-17T09:54:32Z</time>
      </trkpt>
      <trkpt lat="43.68666" lon="7.00142">
        <ele>434.6533203</ele>
        <time>2012-05-17T09:54:51Z</time>
      </trkpt>
      <trkpt lat="43.68696" lon="7.00172">
        <ele>438.0178223</ele>
        <time>2012-05-17T09:55:11Z</time>
      </trkpt>
      <trkpt lat="43.68722" lon="7.002">
        <ele>440.9018555</ele>
        <time>2012-05-17T09:55:29Z</time>
      </trkpt>
      <trkpt lat="43.68748" lon="7.00233">
        <ele>443.3050537</ele>
        <time>2012-05-17T09:55:48Z</time>
      </trkpt>
      <trkpt lat="43.6878" lon="7.00271">
        <ele>446.6696777</ele>
        <time>2012-05-17T09:56:10Z</time>
      </trkpt>
      <trkpt lat="43.68782" lon="7.00273">
        <ele>447.1502686</ele>
        <time>2012-05-17T09:56:12Z</time>
      </trkpt>
      <trkpt lat="43.68799" lon="7.00271">
        <ele>450.5150146</ele>
        <time>2012-05-17T09:56:25Z</time>
      </trkpt>
      <trkpt lat="43.68797" lon="7.00265">
        <ele>450.9956055</ele>
        <time>2012-05-17T09:56:28Z</time>
      </trkpt>
      <trkpt lat="43.68793" lon="7.00226">
        <ele>453.8796387</ele>
        <time>2012-05-17T09:56:44Z</time>
      </trkpt>
      <trkpt lat="43.68797" lon="7.00183">
        <ele>457.2442627</ele>
        <time>2012-05-17T09:57:02Z</time>
      </trkpt>
      <trkpt lat="43.68793" lon="7.00134">
        <ele>460.1281738</ele>
        <time>2012-05-17T09:57:22Z</time>
      </trkpt>
      <trkpt lat="43.6878" lon="7.00097">
        <ele>461.5701904</ele>
        <time>2012-05-17T09:57:40Z</time>
      </trkpt>
      <trkpt lat="43.68765" lon="7.00054">
        <ele>464.9348145</ele>
        <time>2012-05-17T09:58:01Z</time>
      </trkpt>
      <trkpt lat="43.68763" lon="7.00048">
        <ele>465.8961182</ele>
        <time>2012-05-17T09:58:05Z</time>
      </trkpt>
      <trkpt lat="43.68758" lon="7.00042">
        <ele>465.8961182</ele>
        <time>2012-05-17T09:58:09Z</time>
      </trkpt>
      <trkpt lat="43.68752" lon="7.00009">
        <ele>469.2607422</ele>
        <time>2012-05-17T09:58:29Z</time>
      </trkpt>
      <trkpt lat="43.68743" lon="6.99988">
        <ele>470.2219238</ele>
        <time>2012-05-17T09:58:46Z</time>
      </trkpt>
      <trkpt lat="43.68724" lon="6.99956">
        <ele>470.7026367</ele>
        <time>2012-05-17T09:59:03Z</time>
      </trkpt>
      <trkpt lat="43.68722" lon="6.99954">
        <ele>471.1833496</ele>
        <time>2012-05-17T09:59:05Z</time>
      </trkpt>
      <trkpt lat="43.68705" lon="6.99936">
        <ele>471.1833496</ele>
        <time>2012-05-17T09:59:21Z</time>
      </trkpt>
      <trkpt lat="43.68705" lon="6.99936">
        <ele>471.6639404</ele>
        <time>2012-05-17T10:00:47Z</time>
      </trkpt>
      <trkpt lat="43.68705" lon="6.99936">
        <ele>473.1060791</ele>
        <time>2012-05-17T10:02:56Z</time>
      </trkpt>
      <trkpt lat="43.68707" lon="6.99939">
        <ele>473.1060791</ele>
        <time>2012-05-17T10:03:02Z</time>
      </trkpt>
      <trkpt lat="43.68716" lon="6.99945">
        <ele>473.5866699</ele>
        <time>2012-05-17T10:03:08Z</time>
      </trkpt>
      <trkpt lat="43.6872" lon="6.99949">
        <ele>474.0672607</ele>
        <time>2012-05-17T10:03:11Z</time>
      </trkpt>
      <trkpt lat="43.68737" lon="6.99977">
        <ele>473.1060791</ele>
        <time>2012-05-17T10:03:23Z</time>
      </trkpt>
      <trkpt lat="43.68754" lon="7.00014">
        <ele>471.6639404</ele>
        <time>2012-05-17T10:03:36Z</time>
      </trkpt>
      <trkpt lat="43.68756" lon="7.00022">
        <ele>470.7026367</ele>
        <time>2012-05-17T10:03:46Z</time>
      </trkpt>
      <trkpt lat="43.68758" lon="7.00022">
        <ele>470.7026367</ele>
        <time>2012-05-17T10:03:56Z</time>
      </trkpt>
      <trkpt lat="43.68758" lon="7.0002">
        <ele>470.7026367</ele>
        <time>2012-05-17T10:03:58Z</time>
      </trkpt>
      <trkpt lat="43.68767" lon="7.00027">
        <ele>470.2219238</ele>
        <time>2012-05-17T10:04:02Z</time>
      </trkpt>
      <trkpt lat="43.68784" lon="7.00065">
        <ele>469.741333</ele>
        <time>2012-05-17T10:04:09Z</time>
      </trkpt>
      <trkpt lat="43.68786" lon="7.00095">
        <ele>466.8574219</ele>
        <time>2012-05-17T10:04:14Z</time>
      </trkpt>
      <trkpt lat="43.68784" lon="7.00106">
        <ele>465.8961182</ele>
        <time>2012-05-17T10:04:18Z</time>
      </trkpt>
      <trkpt lat="43.68804" lon="7.00142">
        <ele>464.4541016</ele>
        <time>2012-05-17T10:04:28Z</time>
      </trkpt>
      <trkpt lat="43.68806" lon="7.00149">
        <ele>464.4541016</ele>
        <time>2012-05-17T10:04:38Z</time>
      </trkpt>
      <trkpt lat="43.68819" lon="7.00175">
        <ele>464.9348145</ele>
        <time>2012-05-17T10:05:07Z</time>
      </trkpt>
      <trkpt lat="43.68829" lon="7.00205">
        <ele>466.8574219</ele>
        <time>2012-05-17T10:05:19Z</time>
      </trkpt>
      <trkpt lat="43.68836" lon="7.00211">
        <ele>466.8574219</ele>
        <time>2012-05-17T10:05:23Z</time>
      </trkpt>
      <trkpt lat="43.68838" lon="7.00228">
        <ele>464.9348145</ele>
        <time>2012-05-17T10:05:29Z</time>
      </trkpt>
      <trkpt lat="43.68838" lon="7.0023">
        <ele>463.4927979</ele>
        <time>2012-05-17T10:05:42Z</time>
      </trkpt>
      <trkpt lat="43.68838" lon="7.00226">
        <ele>461.5701904</ele>
        <time>2012-05-17T10:09:22Z</time>
      </trkpt>
      <trkpt lat="43.68838" lon="7.0022">
        <ele>462.0507813</ele>
        <time>2012-05-17T10:09:38Z</time>
      </trkpt>
      <trkpt lat="43.68836" lon="7.00211">
        <ele>463.4927979</ele>
        <time>2012-05-17T10:09:42Z</time>
      </trkpt>
      <trkpt lat="43.68823" lon="7.00177">
        <ele>464.9348145</ele>
        <time>2012-05-17T10:09:57Z</time>
      </trkpt>
      <trkpt lat="43.68801" lon="7.0013">
        <ele>463.9733887</ele>
        <time>2012-05-17T10:10:05Z</time>
      </trkpt>
      <trkpt lat="43.68797" lon="7.00114">
        <ele>464.9348145</ele>
        <time>2012-05-17T10:10:12Z</time>
      </trkpt>
      <trkpt lat="43.68801" lon="7.00127">
        <ele>463.9733887</ele>
        <time>2012-05-17T10:10:16Z</time>
      </trkpt>
      <trkpt lat="43.68816" lon="7.00172">
        <ele>463.4927979</ele>
        <time>2012-05-17T10:10:30Z</time>
      </trkpt>
      <trkpt lat="43.68825" lon="7.0019">
        <ele>465.8961182</ele>
        <time>2012-05-17T10:10:47Z</time>
      </trkpt>
      <trkpt lat="43.68829" lon="7.00202">
        <ele>465.4155273</ele>
        <time>2012-05-17T10:11:00Z</time>
      </trkpt>
      <trkpt lat="43.68838" lon="7.00224">
        <ele>463.9733887</ele>
        <time>2012-05-17T10:11:12Z</time>
      </trkpt>
      <trkpt lat="43.68834" lon="7.00243">
        <ele>462.0507813</ele>
        <time>2012-05-17T10:11:24Z</time>
      </trkpt>
      <trkpt lat="43.6884" lon="7.00273">
        <ele>457.2442627</ele>
        <time>2012-05-17T10:11:35Z</time>
      </trkpt>
      <trkpt lat="43.6884" lon="7.00278">
        <ele>457.2442627</ele>
        <time>2012-05-17T10:11:48Z</time>
      </trkpt>
      <trkpt lat="43.6884" lon="7.00308">
        <ele>455.3215332</ele>
        <time>2012-05-17T10:12:11Z</time>
      </trkpt>
      <trkpt lat="43.68838" lon="7.00368">
        <ele>453.8796387</ele>
        <time>2012-05-17T10:12:34Z</time>
      </trkpt>
      <trkpt lat="43.68836" lon="7.00383">
        <ele>450.9956055</ele>
        <time>2012-05-17T10:12:45Z</time>
      </trkpt>
      <trkpt lat="43.68846" lon="7.00434">
        <ele>447.1502686</ele>
        <time>2012-05-17T10:13:00Z</time>
      </trkpt>
      <trkpt lat="43.68866" lon="7.00484">
        <ele>444.2664795</ele>
        <time>2012-05-17T10:13:18Z</time>
      </trkpt>
      <trkpt lat="43.68864" lon="7.00492">
        <ele>444.2664795</ele>
        <time>2012-05-17T10:13:34Z</time>
      </trkpt>
      <trkpt lat="43.68859" lon="7.00494">
        <ele>438.4985352</ele>
        <time>2012-05-17T10:14:17Z</time>
      </trkpt>
      <trkpt lat="43.68855" lon="7.00501">
        <ele>438.0178223</ele>
        <time>2012-05-17T10:14:22Z</time>
      </trkpt>
      <trkpt lat="43.68836" lon="7.00518">
        <ele>437.5371094</ele>
        <time>2012-05-17T10:14:27Z</time>
      </trkpt>
      <trkpt lat="43.68795" lon="7.00559">
        <ele>433.2113037</ele>
        <time>2012-05-17T10:14:42Z</time>
      </trkpt>
      <trkpt lat="43.68795" lon="7.00561">
        <ele>432.7307129</ele>
        <time>2012-05-17T10:14:43Z</time>
      </trkpt>
      <trkpt lat="43.68797" lon="7.00565">
        <ele>432.7307129</ele>
        <time>2012-05-17T10:14:46Z</time>
      </trkpt>
      <trkpt lat="43.68804" lon="7.00578">
        <ele>430.3272705</ele>
        <time>2012-05-17T10:14:53Z</time>
      </trkpt>
      <trkpt lat="43.68795" lon="7.00587">
        <ele>427.4433594</ele>
        <time>2012-05-17T10:15:01Z</time>
      </trkpt>
      <trkpt lat="43.68791" lon="7.00595">
        <ele>420.7141113</ele>
        <time>2012-05-17T10:15:33Z</time>
      </trkpt>
      <trkpt lat="43.68786" lon="7.00606">
        <ele>413.9848633</ele>
        <time>2012-05-17T10:16:15Z</time>
      </trkpt>
      <trkpt lat="43.68771" lon="7.00629">
        <ele>410.1396484</ele>
        <time>2012-05-17T10:16:33Z</time>
      </trkpt>
      <trkpt lat="43.68748" lon="7.00647">
        <ele>408.6976318</ele>
        <time>2012-05-17T10:16:52Z</time>
      </trkpt>
      <trkpt lat="43.68668" lon="7.00662">
        <ele>399.5650635</ele>
        <time>2012-05-17T10:17:20Z</time>
      </trkpt>
      <trkpt lat="43.68503" lon="7.0064">
        <ele>394.2779541</ele>
        <time>2012-05-17T10:17:42Z</time>
      </trkpt>
      <trkpt lat="43.68482" lon="7.00642">
        <ele>388.5100098</ele>
        <time>2012-05-17T10:18:20Z</time>
      </trkpt>
      <trkpt lat="43.68464" lon="7.00623">
        <ele>385.6259766</ele>
        <time>2012-05-17T10:18:31Z</time>
      </trkpt>
      <trkpt lat="43.68454" lon="7.00591">
        <ele>383.2226563</ele>
        <time>2012-05-17T10:18:53Z</time>
      </trkpt>
      <trkpt lat="43.68437" lon="7.00552">
        <ele>378.8968506</ele>
        <time>2012-05-17T10:19:12Z</time>
      </trkpt>
      <trkpt lat="43.68434" lon="7.00546">
        <ele>378.8968506</ele>
        <time>2012-05-17T10:19:14Z</time>
      </trkpt>
      <trkpt lat="43.68424" lon="7.00544">
        <ele>377.9354248</ele>
        <time>2012-05-17T10:19:19Z</time>
      </trkpt>
      <trkpt lat="43.68394" lon="7.00542">
        <ele>377.454834</ele>
        <time>2012-05-17T10:19:29Z</time>
      </trkpt>
      <trkpt lat="43.68359" lon="7.00563">
        <ele>376.4935303</ele>
        <time>2012-05-17T10:19:50Z</time>
      </trkpt>
      <trkpt lat="43.68331" lon="7.00587">
        <ele>375.0515137</ele>
        <time>2012-05-17T10:20:20Z</time>
      </trkpt>
      <trkpt lat="43.68312" lon="7.00591">
        <ele>373.6094971</ele>
        <time>2012-05-17T10:20:40Z</time>
      </trkpt>
      <trkpt lat="43.68304" lon="7.00595">
        <ele>372.6481934</ele>
        <time>2012-05-17T10:20:57Z</time>
      </trkpt>
      <trkpt lat="43.68295" lon="7.00597">
        <ele>372.1674805</ele>
        <time>2012-05-17T10:21:11Z</time>
      </trkpt>
      <trkpt lat="43.68293" lon="7.00599">
        <ele>372.1674805</ele>
        <time>2012-05-17T10:21:17Z</time>
      </trkpt>
      <trkpt lat="43.68289" lon="7.00599">
        <ele>372.6481934</ele>
        <time>2012-05-17T10:21:28Z</time>
      </trkpt>
      <trkpt lat="43.6828" lon="7.00599">
        <ele>370.244873</ele>
        <time>2012-05-17T10:21:52Z</time>
      </trkpt>
      <trkpt lat="43.68271" lon="7.00602">
        <ele>371.6868896</ele>
        <time>2012-05-17T10:22:17Z</time>
      </trkpt>
      <trkpt lat="43.68269" lon="7.00602">
        <ele>370.7255859</ele>
        <time>2012-05-17T10:22:23Z</time>
      </trkpt>
      <trkpt lat="43.68235" lon="7.00602">
        <ele>372.1674805</ele>
        <time>2012-05-17T10:22:46Z</time>
      </trkpt>
      <trkpt lat="43.68216" lon="7.00602">
        <ele>371.6868896</ele>
        <time>2012-05-17T10:22:53Z</time>
      </trkpt>
      <trkpt lat="43.68175" lon="7.00602">
        <ele>368.8029785</ele>
        <time>2012-05-17T10:23:10Z</time>
      </trkpt>
      <trkpt lat="43.68173" lon="7.00602">
        <ele>368.8029785</ele>
        <time>2012-05-17T10:23:12Z</time>
      </trkpt>
      <trkpt lat="43.68162" lon="7.00606">
        <ele>366.880249</ele>
        <time>2012-05-17T10:23:17Z</time>
      </trkpt>
      <trkpt lat="43.68143" lon="7.0061">
        <ele>365.4383545</ele>
        <time>2012-05-17T10:23:25Z</time>
      </trkpt>
      <trkpt lat="43.68121" lon="7.00565">
        <ele>363.9963379</ele>
        <time>2012-05-17T10:23:39Z</time>
      </trkpt>
      <trkpt lat="43.68102" lon="7.00522">
        <ele>362.5543213</ele>
        <time>2012-05-17T10:23:49Z</time>
      </trkpt>
      <trkpt lat="43.681" lon="7.0049">
        <ele>361.1124268</ele>
        <time>2012-05-17T10:24:05Z</time>
      </trkpt>
      <trkpt lat="43.68093" lon="7.00458">
        <ele>360.151123</ele>
        <time>2012-05-17T10:24:17Z</time>
      </trkpt>
      <trkpt lat="43.68059" lon="7.0046">
        <ele>358.2283936</ele>
        <time>2012-05-17T10:24:32Z</time>
      </trkpt>
      <trkpt lat="43.68014" lon="7.00479">
        <ele>358.7089844</ele>
        <time>2012-05-17T10:24:52Z</time>
      </trkpt>
      <trkpt lat="43.68001" lon="7.00471">
        <ele>356.786377</ele>
        <time>2012-05-17T10:25:01Z</time>
      </trkpt>
      <trkpt lat="43.6799" lon="7.00454">
        <ele>351.9798584</ele>
        <time>2012-05-17T10:25:22Z</time>
      </trkpt>
      <trkpt lat="43.67982" lon="7.00445">
        <ele>350.057251</ele>
        <time>2012-05-17T10:25:33Z</time>
      </trkpt>
      <trkpt lat="43.6798" lon="7.00436">
        <ele>348.1346436</ele>
        <time>2012-05-17T10:25:45Z</time>
      </trkpt>
      <trkpt lat="43.67971" lon="7.00434">
        <ele>345.7313232</ele>
        <time>2012-05-17T10:25:59Z</time>
      </trkpt>
      <trkpt lat="43.67967" lon="7.00443">
        <ele>342.84729</ele>
        <time>2012-05-17T10:26:13Z</time>
      </trkpt>
      <trkpt lat="43.6796" lon="7.00439">
        <ele>339.9633789</ele>
        <time>2012-05-17T10:26:26Z</time>
      </trkpt>
      <trkpt lat="43.67952" lon="7.00439">
        <ele>335.6373291</ele>
        <time>2012-05-17T10:26:43Z</time>
      </trkpt>
      <trkpt lat="43.67945" lon="7.00436">
        <ele>333.2341309</ele>
        <time>2012-05-17T10:26:59Z</time>
      </trkpt>
      <trkpt lat="43.67937" lon="7.00445">
        <ele>332.2728271</ele>
        <time>2012-05-17T10:27:15Z</time>
      </trkpt>
      <trkpt lat="43.67937" lon="7.00443">
        <ele>332.2728271</ele>
        <time>2012-05-17T10:27:35Z</time>
      </trkpt>
      <trkpt lat="43.67917" lon="7.00359">
        <ele>330.8309326</ele>
        <time>2012-05-17T10:27:46Z</time>
      </trkpt>
      <trkpt lat="43.67915" lon="7.00351">
        <ele>330.8309326</ele>
        <time>2012-05-17T10:27:47Z</time>
      </trkpt>
      <trkpt lat="43.67911" lon="7.00327">
        <ele>330.3502197</ele>
        <time>2012-05-17T10:27:52Z</time>
      </trkpt>
      <trkpt lat="43.67896" lon="7.00323">
        <ele>330.3502197</ele>
        <time>2012-05-17T10:27:57Z</time>
      </trkpt>
      <trkpt lat="43.6787" lon="7.00344">
        <ele>328.9083252</ele>
        <time>2012-05-17T10:28:14Z</time>
      </trkpt>
      <trkpt lat="43.67859" lon="7.00361">
        <ele>328.9083252</ele>
        <time>2012-05-17T10:28:33Z</time>
      </trkpt>
      <trkpt lat="43.67857" lon="7.00363">
        <ele>329.388916</ele>
        <time>2012-05-17T10:28:54Z</time>
      </trkpt>
      <trkpt lat="43.67853" lon="7.00368">
        <ele>331.7921143</ele>
        <time>2012-05-17T10:29:10Z</time>
      </trkpt>
      <trkpt lat="43.67851" lon="7.00374">
        <ele>332.2728271</ele>
        <time>2012-05-17T10:29:34Z</time>
      </trkpt>
      <trkpt lat="43.67834" lon="7.00383">
        <ele>333.7147217</ele>
        <time>2012-05-17T10:30:02Z</time>
      </trkpt>
      <trkpt lat="43.67823" lon="7.00389">
        <ele>335.6373291</ele>
        <time>2012-05-17T10:30:22Z</time>
      </trkpt>
      <trkpt lat="43.67806" lon="7.00402">
        <ele>338.5214844</ele>
        <time>2012-05-17T10:30:46Z</time>
      </trkpt>
      <trkpt lat="43.67793" lon="7.00411">
        <ele>340.9246826</ele>
        <time>2012-05-17T10:31:08Z</time>
      </trkpt>
      <trkpt lat="43.67776" lon="7.00421">
        <ele>343.8085938</ele>
        <time>2012-05-17T10:31:33Z</time>
      </trkpt>
      <trkpt lat="43.67761" lon="7.0043">
        <ele>347.1732178</ele>
        <time>2012-05-17T10:31:54Z</time>
      </trkpt>
      <trkpt lat="43.67759" lon="7.0043">
        <ele>348.1346436</ele>
        <time>2012-05-17T10:32:10Z</time>
      </trkpt>
      <trkpt lat="43.67754" lon="7.00428">
        <ele>351.4991455</ele>
        <time>2012-05-17T10:32:50Z</time>
      </trkpt>
      <trkpt lat="43.6775" lon="7.00381">
        <ele>352.4605713</ele>
        <time>2012-05-17T10:33:09Z</time>
      </trkpt>
      <trkpt lat="43.67743" lon="7.00338">
        <ele>353.421875</ele>
        <time>2012-05-17T10:33:25Z</time>
      </trkpt>
      <trkpt lat="43.67718" lon="7.00331">
        <ele>355.3444824</ele>
        <time>2012-05-17T10:33:40Z</time>
      </trkpt>
      <trkpt lat="43.67694" lon="7.00316">
        <ele>354.8637695</ele>
        <time>2012-05-17T10:33:47Z</time>
      </trkpt>
      <trkpt lat="43.67666" lon="7.00265">
        <ele>355.8251953</ele>
        <time>2012-05-17T10:33:58Z</time>
      </trkpt>
      <trkpt lat="43.67641" lon="7.00273">
        <ele>351.0184326</ele>
        <time>2012-05-17T10:34:10Z</time>
      </trkpt>
      <trkpt lat="43.67632" lon="7.00282">
        <ele>350.057251</ele>
        <time>2012-05-17T10:34:15Z</time>
      </trkpt>
      <trkpt lat="43.67628" lon="7.00288">
        <ele>349.0958252</ele>
        <time>2012-05-17T10:34:21Z</time>
      </trkpt>
      <trkpt lat="43.67628" lon="7.00299">
        <ele>348.1346436</ele>
        <time>2012-05-17T10:34:26Z</time>
      </trkpt>
      <trkpt lat="43.67634" lon="7.00314">
        <ele>347.6539307</ele>
        <time>2012-05-17T10:34:33Z</time>
      </trkpt>
      <trkpt lat="43.67636" lon="7.00308">
        <ele>347.6539307</ele>
        <time>2012-05-17T10:34:37Z</time>
      </trkpt>
      <trkpt lat="43.67604" lon="7.00256">
        <ele>348.1346436</ele>
        <time>2012-05-17T10:34:58Z</time>
      </trkpt>
      <trkpt lat="43.67561" lon="7.0028">
        <ele>343.8085938</ele>
        <time>2012-05-17T10:35:07Z</time>
      </trkpt>
      <trkpt lat="43.67482" lon="7.00368">
        <ele>340.9246826</ele>
        <time>2012-05-17T10:35:25Z</time>
      </trkpt>
      <trkpt lat="43.67454" lon="7.00415">
        <ele>339.0020752</ele>
        <time>2012-05-17T10:35:32Z</time>
      </trkpt>
      <trkpt lat="43.67456" lon="7.00473">
        <ele>335.6373291</ele>
        <time>2012-05-17T10:35:39Z</time>
      </trkpt>
      <trkpt lat="43.67465" lon="7.00488">
        <ele>335.1567383</ele>
        <time>2012-05-17T10:35:41Z</time>
      </trkpt>
      <trkpt lat="43.67471" lon="7.00516">
        <ele>333.2341309</ele>
        <time>2012-05-17T10:35:46Z</time>
      </trkpt>
      <trkpt lat="43.67469" lon="7.00539">
        <ele>331.3115234</ele>
        <time>2012-05-17T10:35:54Z</time>
      </trkpt>
      <trkpt lat="43.67471" lon="7.00539">
        <ele>329.8695068</ele>
        <time>2012-05-17T10:36:02Z</time>
      </trkpt>
      <trkpt lat="43.67473" lon="7.00546">
        <ele>327.9467773</ele>
        <time>2012-05-17T10:36:15Z</time>
      </trkpt>
      <trkpt lat="43.67477" lon="7.00548">
        <ele>324.5822754</ele>
        <time>2012-05-17T10:36:37Z</time>
      </trkpt>
      <trkpt lat="43.6748" lon="7.00552">
        <ele>317.3724365</ele>
        <time>2012-05-17T10:37:51Z</time>
      </trkpt>
    </trkseg>
  </trk>
</gpx>